<?xml version="1.0" encoding="UTF-8" standalone="no" ?>
<gpx xmlns="http://www.topografix.com/GPX/1/1" xmlns:xsi="http://www.w3.org/2001/XMLSchema-instance" xsi:schemaLocation="http://www.topografix.com/GPX/1/1 http://www.topografix.com/GPX/1/1/gpx.xsd" version="1.1" creator="VisuGPX - https://www.visugpx.com">
  <metadata>
    <name>Bédarieux / Les Balcons de l'Orb</name>
    <desc><![CDATA[Agréable circuit en balcons, qui serpente à travers les pins, les chênes et la garrigue, sur les hauteurs de Bédarieux, offrant une vue sur la vallée de l'Orb et le massif de l'Espinouse.]]></desc>
  </metadata>
  <trk>
    <name><![CDATA[27-JUIL-17 BEDARIEUX - LES BALCONS DE L'ORB]]></name>
    <trkseg>
      <trkpt lat="43.61736" lon="3.15683">
        <ele>189.52</ele>
        <time>2017-07-27T05:46:25Z</time>
      </trkpt>
      <trkpt lat="43.61733" lon="3.15687">
        <ele>190</ele>
        <time>2017-07-27T05:46:51Z</time>
      </trkpt>
      <trkpt lat="43.61735" lon="3.15686">
        <ele>189.52</ele>
        <time>2017-07-27T05:47:04Z</time>
      </trkpt>
      <trkpt lat="43.61736" lon="3.15687">
        <ele>190</ele>
        <time>2017-07-27T05:47:27Z</time>
      </trkpt>
      <trkpt lat="43.61737" lon="3.15686">
        <ele>189.52</ele>
        <time>2017-07-27T05:47:52Z</time>
      </trkpt>
      <trkpt lat="43.61738" lon="3.1569">
        <ele>189.52</ele>
        <time>2017-07-27T05:48:39Z</time>
      </trkpt>
      <trkpt lat="43.61737" lon="3.1569">
        <ele>189.52</ele>
        <time>2017-07-27T05:48:59Z</time>
      </trkpt>
      <trkpt lat="43.61738" lon="3.1569">
        <ele>189.52</ele>
        <time>2017-07-27T05:49:31Z</time>
      </trkpt>
      <trkpt lat="43.61738" lon="3.15691">
        <ele>188.56</ele>
        <time>2017-07-27T05:49:49Z</time>
      </trkpt>
      <trkpt lat="43.61733" lon="3.15693">
        <ele>188.56</ele>
        <time>2017-07-27T05:49:56Z</time>
      </trkpt>
      <trkpt lat="43.61719" lon="3.15694">
        <ele>189.04</ele>
        <time>2017-07-27T05:50:09Z</time>
      </trkpt>
      <trkpt lat="43.61718" lon="3.15695">
        <ele>188.56</ele>
        <time>2017-07-27T05:50:11Z</time>
      </trkpt>
      <trkpt lat="43.617" lon="3.15697">
        <ele>188.08</ele>
        <time>2017-07-27T05:50:25Z</time>
      </trkpt>
      <trkpt lat="43.61683" lon="3.15702">
        <ele>187.59</ele>
        <time>2017-07-27T05:50:40Z</time>
      </trkpt>
      <trkpt lat="43.6167" lon="3.15705">
        <ele>187.11</ele>
        <time>2017-07-27T05:50:54Z</time>
      </trkpt>
      <trkpt lat="43.61666" lon="3.15709">
        <ele>190.48</ele>
        <time>2017-07-27T05:51:07Z</time>
      </trkpt>
      <trkpt lat="43.61647" lon="3.1571">
        <ele>191.92</ele>
        <time>2017-07-27T05:51:23Z</time>
      </trkpt>
      <trkpt lat="43.6163" lon="3.1571">
        <ele>192.88</ele>
        <time>2017-07-27T05:51:38Z</time>
      </trkpt>
      <trkpt lat="43.61617" lon="3.15714">
        <ele>193.36</ele>
        <time>2017-07-27T05:51:49Z</time>
      </trkpt>
      <trkpt lat="43.616" lon="3.15713">
        <ele>192.4</ele>
        <time>2017-07-27T05:52:04Z</time>
      </trkpt>
      <trkpt lat="43.6158" lon="3.15719">
        <ele>191.44</ele>
        <time>2017-07-27T05:52:22Z</time>
      </trkpt>
      <trkpt lat="43.61559" lon="3.15722">
        <ele>191.44</ele>
        <time>2017-07-27T05:52:39Z</time>
      </trkpt>
      <trkpt lat="43.61547" lon="3.15726">
        <ele>191.44</ele>
        <time>2017-07-27T05:52:51Z</time>
      </trkpt>
      <trkpt lat="43.61528" lon="3.1574">
        <ele>190.96</ele>
        <time>2017-07-27T05:53:09Z</time>
      </trkpt>
      <trkpt lat="43.61528" lon="3.15744">
        <ele>191.44</ele>
        <time>2017-07-27T05:53:18Z</time>
      </trkpt>
      <trkpt lat="43.61526" lon="3.15745">
        <ele>190.96</ele>
        <time>2017-07-27T05:53:20Z</time>
      </trkpt>
      <trkpt lat="43.61519" lon="3.15757">
        <ele>190.96</ele>
        <time>2017-07-27T05:53:32Z</time>
      </trkpt>
      <trkpt lat="43.61511" lon="3.15772">
        <ele>191.44</ele>
        <time>2017-07-27T05:53:43Z</time>
      </trkpt>
      <trkpt lat="43.61499" lon="3.15786">
        <ele>190.96</ele>
        <time>2017-07-27T05:53:57Z</time>
      </trkpt>
      <trkpt lat="43.6149" lon="3.15798">
        <ele>190.96</ele>
        <time>2017-07-27T05:54:08Z</time>
      </trkpt>
      <trkpt lat="43.61479" lon="3.1581">
        <ele>191.44</ele>
        <time>2017-07-27T05:54:20Z</time>
      </trkpt>
      <trkpt lat="43.61478" lon="3.15815">
        <ele>191.92</ele>
        <time>2017-07-27T05:54:24Z</time>
      </trkpt>
      <trkpt lat="43.61465" lon="3.15828">
        <ele>191.92</ele>
        <time>2017-07-27T05:54:38Z</time>
      </trkpt>
      <trkpt lat="43.61459" lon="3.1583">
        <ele>191.92</ele>
        <time>2017-07-27T05:54:43Z</time>
      </trkpt>
      <trkpt lat="43.61457" lon="3.15831">
        <ele>191.92</ele>
        <time>2017-07-27T05:54:45Z</time>
      </trkpt>
      <trkpt lat="43.61452" lon="3.15834">
        <ele>191.92</ele>
        <time>2017-07-27T05:54:50Z</time>
      </trkpt>
      <trkpt lat="43.6145" lon="3.15835">
        <ele>191.92</ele>
        <time>2017-07-27T05:54:51Z</time>
      </trkpt>
      <trkpt lat="43.61449" lon="3.15836">
        <ele>191.92</ele>
        <time>2017-07-27T05:54:52Z</time>
      </trkpt>
      <trkpt lat="43.61442" lon="3.15845">
        <ele>192.4</ele>
        <time>2017-07-27T05:55:02Z</time>
      </trkpt>
      <trkpt lat="43.61439" lon="3.15848">
        <ele>192.4</ele>
        <time>2017-07-27T05:55:06Z</time>
      </trkpt>
      <trkpt lat="43.61434" lon="3.15854">
        <ele>192.4</ele>
        <time>2017-07-27T05:55:12Z</time>
      </trkpt>
      <trkpt lat="43.61433" lon="3.15872">
        <ele>192.88</ele>
        <time>2017-07-27T05:55:22Z</time>
      </trkpt>
      <trkpt lat="43.61434" lon="3.1588">
        <ele>192.88</ele>
        <time>2017-07-27T05:55:28Z</time>
      </trkpt>
      <trkpt lat="43.61434" lon="3.15886">
        <ele>192.88</ele>
        <time>2017-07-27T05:55:34Z</time>
      </trkpt>
      <trkpt lat="43.61428" lon="3.15892">
        <ele>193.36</ele>
        <time>2017-07-27T05:55:42Z</time>
      </trkpt>
      <trkpt lat="43.61425" lon="3.15896">
        <ele>194.32</ele>
        <time>2017-07-27T05:55:46Z</time>
      </trkpt>
      <trkpt lat="43.61412" lon="3.15918">
        <ele>195.77</ele>
        <time>2017-07-27T05:56:04Z</time>
      </trkpt>
      <trkpt lat="43.61395" lon="3.15933">
        <ele>196.25</ele>
        <time>2017-07-27T05:56:22Z</time>
      </trkpt>
      <trkpt lat="43.61391" lon="3.15936">
        <ele>196.73</ele>
        <time>2017-07-27T05:56:26Z</time>
      </trkpt>
      <trkpt lat="43.61379" lon="3.15947">
        <ele>196.73</ele>
        <time>2017-07-27T05:56:36Z</time>
      </trkpt>
      <trkpt lat="43.61362" lon="3.15958">
        <ele>197.69</ele>
        <time>2017-07-27T05:56:52Z</time>
      </trkpt>
      <trkpt lat="43.61348" lon="3.15974">
        <ele>199.13</ele>
        <time>2017-07-27T05:57:08Z</time>
      </trkpt>
      <trkpt lat="43.6134" lon="3.15995">
        <ele>200.09</ele>
        <time>2017-07-27T05:57:26Z</time>
      </trkpt>
      <trkpt lat="43.61336" lon="3.16006">
        <ele>200.57</ele>
        <time>2017-07-27T05:57:42Z</time>
      </trkpt>
      <trkpt lat="43.6134" lon="3.16014">
        <ele>201.53</ele>
        <time>2017-07-27T05:57:57Z</time>
      </trkpt>
      <trkpt lat="43.61342" lon="3.16017">
        <ele>202.01</ele>
        <time>2017-07-27T05:58:04Z</time>
      </trkpt>
      <trkpt lat="43.61344" lon="3.16026">
        <ele>203.94</ele>
        <time>2017-07-27T05:58:19Z</time>
      </trkpt>
      <trkpt lat="43.61344" lon="3.16032">
        <ele>204.9</ele>
        <time>2017-07-27T05:58:25Z</time>
      </trkpt>
      <trkpt lat="43.61345" lon="3.16036">
        <ele>205.38</ele>
        <time>2017-07-27T05:58:28Z</time>
      </trkpt>
      <trkpt lat="43.61348" lon="3.16049">
        <ele>206.82</ele>
        <time>2017-07-27T05:58:42Z</time>
      </trkpt>
      <trkpt lat="43.61352" lon="3.16069">
        <ele>207.78</ele>
        <time>2017-07-27T05:58:57Z</time>
      </trkpt>
      <trkpt lat="43.61356" lon="3.16084">
        <ele>209.22</ele>
        <time>2017-07-27T05:59:09Z</time>
      </trkpt>
      <trkpt lat="43.61356" lon="3.16085">
        <ele>209.7</ele>
        <time>2017-07-27T05:59:10Z</time>
      </trkpt>
      <trkpt lat="43.61359" lon="3.16099">
        <ele>211.15</ele>
        <time>2017-07-27T05:59:22Z</time>
      </trkpt>
      <trkpt lat="43.6136" lon="3.16116">
        <ele>212.11</ele>
        <time>2017-07-27T05:59:37Z</time>
      </trkpt>
      <trkpt lat="43.61362" lon="3.16133">
        <ele>214.03</ele>
        <time>2017-07-27T05:59:51Z</time>
      </trkpt>
      <trkpt lat="43.61365" lon="3.16155">
        <ele>215.47</ele>
        <time>2017-07-27T06:00:07Z</time>
      </trkpt>
      <trkpt lat="43.61366" lon="3.16175">
        <ele>216.43</ele>
        <time>2017-07-27T06:00:22Z</time>
      </trkpt>
      <trkpt lat="43.61368" lon="3.16195">
        <ele>217.88</ele>
        <time>2017-07-27T06:00:38Z</time>
      </trkpt>
      <trkpt lat="43.61372" lon="3.16219">
        <ele>219.8</ele>
        <time>2017-07-27T06:00:57Z</time>
      </trkpt>
      <trkpt lat="43.61375" lon="3.16227">
        <ele>220.28</ele>
        <time>2017-07-27T06:01:03Z</time>
      </trkpt>
      <trkpt lat="43.61385" lon="3.1625">
        <ele>221.24</ele>
        <time>2017-07-27T06:01:22Z</time>
      </trkpt>
      <trkpt lat="43.61392" lon="3.16265">
        <ele>222.68</ele>
        <time>2017-07-27T06:01:33Z</time>
      </trkpt>
      <trkpt lat="43.61403" lon="3.16285">
        <ele>224.12</ele>
        <time>2017-07-27T06:01:50Z</time>
      </trkpt>
      <trkpt lat="43.61412" lon="3.16295">
        <ele>225.57</ele>
        <time>2017-07-27T06:02:04Z</time>
      </trkpt>
      <trkpt lat="43.6142" lon="3.16308">
        <ele>227.01</ele>
        <time>2017-07-27T06:02:18Z</time>
      </trkpt>
      <trkpt lat="43.61429" lon="3.16323">
        <ele>228.45</ele>
        <time>2017-07-27T06:02:31Z</time>
      </trkpt>
      <trkpt lat="43.61435" lon="3.16345">
        <ele>229.89</ele>
        <time>2017-07-27T06:02:46Z</time>
      </trkpt>
      <trkpt lat="43.61436" lon="3.16353">
        <ele>230.37</ele>
        <time>2017-07-27T06:02:50Z</time>
      </trkpt>
      <trkpt lat="43.61442" lon="3.16379">
        <ele>231.81</ele>
        <time>2017-07-27T06:03:08Z</time>
      </trkpt>
      <trkpt lat="43.61445" lon="3.1639">
        <ele>232.78</ele>
        <time>2017-07-27T06:03:16Z</time>
      </trkpt>
      <trkpt lat="43.61447" lon="3.16394">
        <ele>233.26</ele>
        <time>2017-07-27T06:03:19Z</time>
      </trkpt>
      <trkpt lat="43.61455" lon="3.16415">
        <ele>234.22</ele>
        <time>2017-07-27T06:03:35Z</time>
      </trkpt>
      <trkpt lat="43.61464" lon="3.16436">
        <ele>235.18</ele>
        <time>2017-07-27T06:03:52Z</time>
      </trkpt>
      <trkpt lat="43.61474" lon="3.16459">
        <ele>236.14</ele>
        <time>2017-07-27T06:04:09Z</time>
      </trkpt>
      <trkpt lat="43.61482" lon="3.1649">
        <ele>236.62</ele>
        <time>2017-07-27T06:04:30Z</time>
      </trkpt>
      <trkpt lat="43.6149" lon="3.1652">
        <ele>237.1</ele>
        <time>2017-07-27T06:04:47Z</time>
      </trkpt>
      <trkpt lat="43.61497" lon="3.16545">
        <ele>238.06</ele>
        <time>2017-07-27T06:05:05Z</time>
      </trkpt>
      <trkpt lat="43.61499" lon="3.16548">
        <ele>237.58</ele>
        <time>2017-07-27T06:05:09Z</time>
      </trkpt>
      <trkpt lat="43.61507" lon="3.16554">
        <ele>237.58</ele>
        <time>2017-07-27T06:05:17Z</time>
      </trkpt>
      <trkpt lat="43.61519" lon="3.16583">
        <ele>238.06</ele>
        <time>2017-07-27T06:05:37Z</time>
      </trkpt>
      <trkpt lat="43.6153" lon="3.16612">
        <ele>237.58</ele>
        <time>2017-07-27T06:05:56Z</time>
      </trkpt>
      <trkpt lat="43.61541" lon="3.16643">
        <ele>238.54</ele>
        <time>2017-07-27T06:06:18Z</time>
      </trkpt>
      <trkpt lat="43.61551" lon="3.16666">
        <ele>239.51</ele>
        <time>2017-07-27T06:06:34Z</time>
      </trkpt>
      <trkpt lat="43.6157" lon="3.16685">
        <ele>238.54</ele>
        <time>2017-07-27T06:06:53Z</time>
      </trkpt>
      <trkpt lat="43.61586" lon="3.16702">
        <ele>238.54</ele>
        <time>2017-07-27T06:07:11Z</time>
      </trkpt>
      <trkpt lat="43.61604" lon="3.16725">
        <ele>235.66</ele>
        <time>2017-07-27T06:07:31Z</time>
      </trkpt>
      <trkpt lat="43.61613" lon="3.16745">
        <ele>234.7</ele>
        <time>2017-07-27T06:07:47Z</time>
      </trkpt>
      <trkpt lat="43.61621" lon="3.16769">
        <ele>234.7</ele>
        <time>2017-07-27T06:08:03Z</time>
      </trkpt>
      <trkpt lat="43.61622" lon="3.16773">
        <ele>234.7</ele>
        <time>2017-07-27T06:08:06Z</time>
      </trkpt>
      <trkpt lat="43.61634" lon="3.16783">
        <ele>235.18</ele>
        <time>2017-07-27T06:08:19Z</time>
      </trkpt>
      <trkpt lat="43.61651" lon="3.16793">
        <ele>237.1</ele>
        <time>2017-07-27T06:08:35Z</time>
      </trkpt>
      <trkpt lat="43.61665" lon="3.16806">
        <ele>237.58</ele>
        <time>2017-07-27T06:08:49Z</time>
      </trkpt>
      <trkpt lat="43.61677" lon="3.16817">
        <ele>238.54</ele>
        <time>2017-07-27T06:09:01Z</time>
      </trkpt>
      <trkpt lat="43.61679" lon="3.16818">
        <ele>238.54</ele>
        <time>2017-07-27T06:09:03Z</time>
      </trkpt>
      <trkpt lat="43.61682" lon="3.16822">
        <ele>239.02</ele>
        <time>2017-07-27T06:09:07Z</time>
      </trkpt>
      <trkpt lat="43.61695" lon="3.16839">
        <ele>239.51</ele>
        <time>2017-07-27T06:09:23Z</time>
      </trkpt>
      <trkpt lat="43.61696" lon="3.16845">
        <ele>239.99</ele>
        <time>2017-07-27T06:09:27Z</time>
      </trkpt>
      <trkpt lat="43.61691" lon="3.16859">
        <ele>241.43</ele>
        <time>2017-07-27T06:09:41Z</time>
      </trkpt>
      <trkpt lat="43.61684" lon="3.16875">
        <ele>243.35</ele>
        <time>2017-07-27T06:09:55Z</time>
      </trkpt>
      <trkpt lat="43.61684" lon="3.16899">
        <ele>244.79</ele>
        <time>2017-07-27T06:10:12Z</time>
      </trkpt>
      <trkpt lat="43.61685" lon="3.16921">
        <ele>245.75</ele>
        <time>2017-07-27T06:10:28Z</time>
      </trkpt>
      <trkpt lat="43.61685" lon="3.16927">
        <ele>246.23</ele>
        <time>2017-07-27T06:10:32Z</time>
      </trkpt>
      <trkpt lat="43.61692" lon="3.16946">
        <ele>248.16</ele>
        <time>2017-07-27T06:10:48Z</time>
      </trkpt>
      <trkpt lat="43.61696" lon="3.16957">
        <ele>249.12</ele>
        <time>2017-07-27T06:10:57Z</time>
      </trkpt>
      <trkpt lat="43.61697" lon="3.1696">
        <ele>249.12</ele>
        <time>2017-07-27T06:10:59Z</time>
      </trkpt>
      <trkpt lat="43.61699" lon="3.16971">
        <ele>250.08</ele>
        <time>2017-07-27T06:11:08Z</time>
      </trkpt>
      <trkpt lat="43.61703" lon="3.16993">
        <ele>251.52</ele>
        <time>2017-07-27T06:11:25Z</time>
      </trkpt>
      <trkpt lat="43.61706" lon="3.17015">
        <ele>253.44</ele>
        <time>2017-07-27T06:11:41Z</time>
      </trkpt>
      <trkpt lat="43.61707" lon="3.17034">
        <ele>254.41</ele>
        <time>2017-07-27T06:11:56Z</time>
      </trkpt>
      <trkpt lat="43.61705" lon="3.17057">
        <ele>256.81</ele>
        <time>2017-07-27T06:12:11Z</time>
      </trkpt>
      <trkpt lat="43.61704" lon="3.17062">
        <ele>256.81</ele>
        <time>2017-07-27T06:12:14Z</time>
      </trkpt>
      <trkpt lat="43.61701" lon="3.17078">
        <ele>258.73</ele>
        <time>2017-07-27T06:12:27Z</time>
      </trkpt>
      <trkpt lat="43.61699" lon="3.17094">
        <ele>260.65</ele>
        <time>2017-07-27T06:12:40Z</time>
      </trkpt>
      <trkpt lat="43.61699" lon="3.17107">
        <ele>262.1</ele>
        <time>2017-07-27T06:12:52Z</time>
      </trkpt>
      <trkpt lat="43.61699" lon="3.1711">
        <ele>262.1</ele>
        <time>2017-07-27T06:12:54Z</time>
      </trkpt>
      <trkpt lat="43.61698" lon="3.17128">
        <ele>263.54</ele>
        <time>2017-07-27T06:13:08Z</time>
      </trkpt>
      <trkpt lat="43.61698" lon="3.17135">
        <ele>264.98</ele>
        <time>2017-07-27T06:13:13Z</time>
      </trkpt>
      <trkpt lat="43.61697" lon="3.17142">
        <ele>264.98</ele>
        <time>2017-07-27T06:13:18Z</time>
      </trkpt>
      <trkpt lat="43.61698" lon="3.17163">
        <ele>266.42</ele>
        <time>2017-07-27T06:13:34Z</time>
      </trkpt>
      <trkpt lat="43.61705" lon="3.1718">
        <ele>267.86</ele>
        <time>2017-07-27T06:13:48Z</time>
      </trkpt>
      <trkpt lat="43.61709" lon="3.17187">
        <ele>268.35</ele>
        <time>2017-07-27T06:13:54Z</time>
      </trkpt>
      <trkpt lat="43.61716" lon="3.17198">
        <ele>269.31</ele>
        <time>2017-07-27T06:14:05Z</time>
      </trkpt>
      <trkpt lat="43.61723" lon="3.17209">
        <ele>270.75</ele>
        <time>2017-07-27T06:14:18Z</time>
      </trkpt>
      <trkpt lat="43.61733" lon="3.17224">
        <ele>273.63</ele>
        <time>2017-07-27T06:14:36Z</time>
      </trkpt>
      <trkpt lat="43.61738" lon="3.17242">
        <ele>276.04</ele>
        <time>2017-07-27T06:14:52Z</time>
      </trkpt>
      <trkpt lat="43.61739" lon="3.17255">
        <ele>277.48</ele>
        <time>2017-07-27T06:15:08Z</time>
      </trkpt>
      <trkpt lat="43.61738" lon="3.17276">
        <ele>279.4</ele>
        <time>2017-07-27T06:15:26Z</time>
      </trkpt>
      <trkpt lat="43.61737" lon="3.17285">
        <ele>279.4</ele>
        <time>2017-07-27T06:15:32Z</time>
      </trkpt>
      <trkpt lat="43.61735" lon="3.17297">
        <ele>279.88</ele>
        <time>2017-07-27T06:15:40Z</time>
      </trkpt>
      <trkpt lat="43.61736" lon="3.17302">
        <ele>280.36</ele>
        <time>2017-07-27T06:15:43Z</time>
      </trkpt>
      <trkpt lat="43.61737" lon="3.17308">
        <ele>280.36</ele>
        <time>2017-07-27T06:15:47Z</time>
      </trkpt>
      <trkpt lat="43.61739" lon="3.17312">
        <ele>280.36</ele>
        <time>2017-07-27T06:15:51Z</time>
      </trkpt>
      <trkpt lat="43.6174" lon="3.17314">
        <ele>280.84</ele>
        <time>2017-07-27T06:15:53Z</time>
      </trkpt>
      <trkpt lat="43.61744" lon="3.17319">
        <ele>280.84</ele>
        <time>2017-07-27T06:15:58Z</time>
      </trkpt>
      <trkpt lat="43.61747" lon="3.1732">
        <ele>281.32</ele>
        <time>2017-07-27T06:16:01Z</time>
      </trkpt>
      <trkpt lat="43.61756" lon="3.17326">
        <ele>282.28</ele>
        <time>2017-07-27T06:16:12Z</time>
      </trkpt>
      <trkpt lat="43.6176" lon="3.17327">
        <ele>283.73</ele>
        <time>2017-07-27T06:16:22Z</time>
      </trkpt>
      <trkpt lat="43.61759" lon="3.17327">
        <ele>283.73</ele>
        <time>2017-07-27T06:16:42Z</time>
      </trkpt>
      <trkpt lat="43.61758" lon="3.17327">
        <ele>284.21</ele>
        <time>2017-07-27T06:17:01Z</time>
      </trkpt>
      <trkpt lat="43.61758" lon="3.17329">
        <ele>283.73</ele>
        <time>2017-07-27T06:17:29Z</time>
      </trkpt>
      <trkpt lat="43.61759" lon="3.17327">
        <ele>283.73</ele>
        <time>2017-07-27T06:18:01Z</time>
      </trkpt>
      <trkpt lat="43.6176" lon="3.17328">
        <ele>283.25</ele>
        <time>2017-07-27T06:18:35Z</time>
      </trkpt>
      <trkpt lat="43.61758" lon="3.17327">
        <ele>283.73</ele>
        <time>2017-07-27T06:19:01Z</time>
      </trkpt>
      <trkpt lat="43.6176" lon="3.17329">
        <ele>283.25</ele>
        <time>2017-07-27T06:19:36Z</time>
      </trkpt>
      <trkpt lat="43.61759" lon="3.17328">
        <ele>283.25</ele>
        <time>2017-07-27T06:20:11Z</time>
      </trkpt>
      <trkpt lat="43.61765" lon="3.17332">
        <ele>284.21</ele>
        <time>2017-07-27T06:20:28Z</time>
      </trkpt>
      <trkpt lat="43.61774" lon="3.17339">
        <ele>285.65</ele>
        <time>2017-07-27T06:20:40Z</time>
      </trkpt>
      <trkpt lat="43.61783" lon="3.17344">
        <ele>288.05</ele>
        <time>2017-07-27T06:20:53Z</time>
      </trkpt>
      <trkpt lat="43.61784" lon="3.17347">
        <ele>289.01</ele>
        <time>2017-07-27T06:21:03Z</time>
      </trkpt>
      <trkpt lat="43.61788" lon="3.17349">
        <ele>289.49</ele>
        <time>2017-07-27T06:21:07Z</time>
      </trkpt>
      <trkpt lat="43.61799" lon="3.17358">
        <ele>290.94</ele>
        <time>2017-07-27T06:21:23Z</time>
      </trkpt>
      <trkpt lat="43.61811" lon="3.17367">
        <ele>292.86</ele>
        <time>2017-07-27T06:21:39Z</time>
      </trkpt>
      <trkpt lat="43.61817" lon="3.17375">
        <ele>293.82</ele>
        <time>2017-07-27T06:21:51Z</time>
      </trkpt>
      <trkpt lat="43.61825" lon="3.17381">
        <ele>295.74</ele>
        <time>2017-07-27T06:22:06Z</time>
      </trkpt>
      <trkpt lat="43.61836" lon="3.17386">
        <ele>298.15</ele>
        <time>2017-07-27T06:22:24Z</time>
      </trkpt>
      <trkpt lat="43.61842" lon="3.174">
        <ele>300.55</ele>
        <time>2017-07-27T06:22:41Z</time>
      </trkpt>
      <trkpt lat="43.61845" lon="3.17416">
        <ele>302.47</ele>
        <time>2017-07-27T06:22:57Z</time>
      </trkpt>
      <trkpt lat="43.61848" lon="3.1743">
        <ele>304.88</ele>
        <time>2017-07-27T06:23:12Z</time>
      </trkpt>
      <trkpt lat="43.6185" lon="3.17439">
        <ele>306.32</ele>
        <time>2017-07-27T06:23:25Z</time>
      </trkpt>
      <trkpt lat="43.61853" lon="3.17446">
        <ele>306.8</ele>
        <time>2017-07-27T06:23:38Z</time>
      </trkpt>
      <trkpt lat="43.61854" lon="3.17454">
        <ele>307.76</ele>
        <time>2017-07-27T06:23:51Z</time>
      </trkpt>
      <trkpt lat="43.61855" lon="3.17461">
        <ele>308.24</ele>
        <time>2017-07-27T06:23:59Z</time>
      </trkpt>
      <trkpt lat="43.61856" lon="3.17473">
        <ele>310.16</ele>
        <time>2017-07-27T06:24:11Z</time>
      </trkpt>
      <trkpt lat="43.61857" lon="3.1748">
        <ele>311.6</ele>
        <time>2017-07-27T06:24:23Z</time>
      </trkpt>
      <trkpt lat="43.61859" lon="3.17492">
        <ele>312.09</ele>
        <time>2017-07-27T06:24:37Z</time>
      </trkpt>
      <trkpt lat="43.6186" lon="3.17506">
        <ele>314.01</ele>
        <time>2017-07-27T06:24:51Z</time>
      </trkpt>
      <trkpt lat="43.61862" lon="3.1752">
        <ele>314.97</ele>
        <time>2017-07-27T06:25:04Z</time>
      </trkpt>
      <trkpt lat="43.61866" lon="3.17539">
        <ele>316.41</ele>
        <time>2017-07-27T06:25:20Z</time>
      </trkpt>
      <trkpt lat="43.6187" lon="3.17554">
        <ele>317.85</ele>
        <time>2017-07-27T06:25:34Z</time>
      </trkpt>
      <trkpt lat="43.61874" lon="3.17569">
        <ele>319.78</ele>
        <time>2017-07-27T06:25:48Z</time>
      </trkpt>
      <trkpt lat="43.61874" lon="3.17578">
        <ele>319.78</ele>
        <time>2017-07-27T06:25:56Z</time>
      </trkpt>
      <trkpt lat="43.61879" lon="3.17599">
        <ele>320.26</ele>
        <time>2017-07-27T06:26:11Z</time>
      </trkpt>
      <trkpt lat="43.61882" lon="3.17621">
        <ele>320.74</ele>
        <time>2017-07-27T06:26:27Z</time>
      </trkpt>
      <trkpt lat="43.61881" lon="3.17642">
        <ele>320.74</ele>
        <time>2017-07-27T06:26:42Z</time>
      </trkpt>
      <trkpt lat="43.61886" lon="3.17661">
        <ele>321.7</ele>
        <time>2017-07-27T06:26:57Z</time>
      </trkpt>
      <trkpt lat="43.61887" lon="3.17666">
        <ele>322.18</ele>
        <time>2017-07-27T06:27:02Z</time>
      </trkpt>
      <trkpt lat="43.61888" lon="3.17676">
        <ele>322.18</ele>
        <time>2017-07-27T06:27:09Z</time>
      </trkpt>
      <trkpt lat="43.61888" lon="3.17697">
        <ele>322.18</ele>
        <time>2017-07-27T06:27:25Z</time>
      </trkpt>
      <trkpt lat="43.61888" lon="3.17716">
        <ele>322.66</ele>
        <time>2017-07-27T06:27:40Z</time>
      </trkpt>
      <trkpt lat="43.6189" lon="3.17734">
        <ele>324.1</ele>
        <time>2017-07-27T06:27:55Z</time>
      </trkpt>
      <trkpt lat="43.61891" lon="3.17754">
        <ele>325.06</ele>
        <time>2017-07-27T06:28:10Z</time>
      </trkpt>
      <trkpt lat="43.61897" lon="3.17769">
        <ele>326.99</ele>
        <time>2017-07-27T06:28:23Z</time>
      </trkpt>
      <trkpt lat="43.61897" lon="3.17784">
        <ele>328.43</ele>
        <time>2017-07-27T06:28:36Z</time>
      </trkpt>
      <trkpt lat="43.61896" lon="3.17801">
        <ele>331.31</ele>
        <time>2017-07-27T06:28:53Z</time>
      </trkpt>
      <trkpt lat="43.61897" lon="3.17804">
        <ele>331.79</ele>
        <time>2017-07-27T06:29:10Z</time>
      </trkpt>
      <trkpt lat="43.61897" lon="3.17802">
        <ele>332.27</ele>
        <time>2017-07-27T06:29:41Z</time>
      </trkpt>
      <trkpt lat="43.61896" lon="3.17804">
        <ele>332.27</ele>
        <time>2017-07-27T06:30:17Z</time>
      </trkpt>
      <trkpt lat="43.61898" lon="3.17804">
        <ele>332.27</ele>
        <time>2017-07-27T06:30:48Z</time>
      </trkpt>
      <trkpt lat="43.61898" lon="3.17804">
        <ele>332.27</ele>
        <time>2017-07-27T06:31:27Z</time>
      </trkpt>
      <trkpt lat="43.61898" lon="3.17802">
        <ele>332.27</ele>
        <time>2017-07-27T06:32:00Z</time>
      </trkpt>
      <trkpt lat="43.61898" lon="3.17802">
        <ele>332.75</ele>
        <time>2017-07-27T06:32:22Z</time>
      </trkpt>
      <trkpt lat="43.61897" lon="3.17803">
        <ele>332.75</ele>
        <time>2017-07-27T06:32:42Z</time>
      </trkpt>
      <trkpt lat="43.61894" lon="3.17804">
        <ele>333.23</ele>
        <time>2017-07-27T06:33:12Z</time>
      </trkpt>
      <trkpt lat="43.61894" lon="3.17806">
        <ele>332.75</ele>
        <time>2017-07-27T06:33:33Z</time>
      </trkpt>
      <trkpt lat="43.61894" lon="3.17805">
        <ele>333.23</ele>
        <time>2017-07-27T06:34:01Z</time>
      </trkpt>
      <trkpt lat="43.61895" lon="3.17802">
        <ele>333.23</ele>
        <time>2017-07-27T06:34:15Z</time>
      </trkpt>
      <trkpt lat="43.61894" lon="3.17803">
        <ele>332.75</ele>
        <time>2017-07-27T06:34:35Z</time>
      </trkpt>
      <trkpt lat="43.61894" lon="3.17802">
        <ele>332.75</ele>
        <time>2017-07-27T06:34:59Z</time>
      </trkpt>
      <trkpt lat="43.61899" lon="3.17794">
        <ele>335.16</ele>
        <time>2017-07-27T06:35:16Z</time>
      </trkpt>
      <trkpt lat="43.61905" lon="3.17779">
        <ele>337.08</ele>
        <time>2017-07-27T06:35:33Z</time>
      </trkpt>
      <trkpt lat="43.61908" lon="3.17768">
        <ele>339.96</ele>
        <time>2017-07-27T06:35:47Z</time>
      </trkpt>
      <trkpt lat="43.6191" lon="3.17754">
        <ele>341.41</ele>
        <time>2017-07-27T06:36:01Z</time>
      </trkpt>
      <trkpt lat="43.61913" lon="3.17737">
        <ele>343.81</ele>
        <time>2017-07-27T06:36:17Z</time>
      </trkpt>
      <trkpt lat="43.61919" lon="3.17722">
        <ele>345.73</ele>
        <time>2017-07-27T06:36:33Z</time>
      </trkpt>
      <trkpt lat="43.61923" lon="3.17706">
        <ele>347.65</ele>
        <time>2017-07-27T06:36:48Z</time>
      </trkpt>
      <trkpt lat="43.61927" lon="3.17694">
        <ele>349.58</ele>
        <time>2017-07-27T06:37:03Z</time>
      </trkpt>
      <trkpt lat="43.6193" lon="3.17684">
        <ele>350.54</ele>
        <time>2017-07-27T06:37:23Z</time>
      </trkpt>
      <trkpt lat="43.61933" lon="3.17671">
        <ele>351.5</ele>
        <time>2017-07-27T06:37:39Z</time>
      </trkpt>
      <trkpt lat="43.61938" lon="3.17656">
        <ele>352.94</ele>
        <time>2017-07-27T06:37:53Z</time>
      </trkpt>
      <trkpt lat="43.61942" lon="3.17639">
        <ele>354.86</ele>
        <time>2017-07-27T06:38:10Z</time>
      </trkpt>
      <trkpt lat="43.61945" lon="3.17624">
        <ele>355.83</ele>
        <time>2017-07-27T06:38:23Z</time>
      </trkpt>
      <trkpt lat="43.61948" lon="3.17607">
        <ele>356.79</ele>
        <time>2017-07-27T06:38:38Z</time>
      </trkpt>
      <trkpt lat="43.6195" lon="3.17592">
        <ele>358.23</ele>
        <time>2017-07-27T06:38:52Z</time>
      </trkpt>
      <trkpt lat="43.61954" lon="3.17575">
        <ele>358.23</ele>
        <time>2017-07-27T06:39:04Z</time>
      </trkpt>
      <trkpt lat="43.6196" lon="3.17559">
        <ele>358.71</ele>
        <time>2017-07-27T06:39:20Z</time>
      </trkpt>
      <trkpt lat="43.61967" lon="3.17546">
        <ele>360.15</ele>
        <time>2017-07-27T06:39:36Z</time>
      </trkpt>
      <trkpt lat="43.61979" lon="3.17536">
        <ele>360.63</ele>
        <time>2017-07-27T06:39:52Z</time>
      </trkpt>
      <trkpt lat="43.61983" lon="3.17533">
        <ele>361.11</ele>
        <time>2017-07-27T06:39:59Z</time>
      </trkpt>
      <trkpt lat="43.61998" lon="3.17527">
        <ele>362.07</ele>
        <time>2017-07-27T06:40:14Z</time>
      </trkpt>
      <trkpt lat="43.61999" lon="3.17526">
        <ele>362.07</ele>
        <time>2017-07-27T06:40:33Z</time>
      </trkpt>
      <trkpt lat="43.61999" lon="3.17525">
        <ele>361.59</ele>
        <time>2017-07-27T06:40:54Z</time>
      </trkpt>
      <trkpt lat="43.62" lon="3.17524">
        <ele>362.55</ele>
        <time>2017-07-27T06:40:58Z</time>
      </trkpt>
      <trkpt lat="43.62003" lon="3.17526">
        <ele>363.04</ele>
        <time>2017-07-27T06:41:27Z</time>
      </trkpt>
      <trkpt lat="43.62005" lon="3.17526">
        <ele>363.04</ele>
        <time>2017-07-27T06:41:30Z</time>
      </trkpt>
      <trkpt lat="43.62009" lon="3.1753">
        <ele>363.04</ele>
        <time>2017-07-27T06:41:45Z</time>
      </trkpt>
      <trkpt lat="43.62011" lon="3.17531">
        <ele>363.52</ele>
        <time>2017-07-27T06:42:17Z</time>
      </trkpt>
      <trkpt lat="43.62009" lon="3.17526">
        <ele>363.52</ele>
        <time>2017-07-27T06:42:31Z</time>
      </trkpt>
      <trkpt lat="43.62013" lon="3.17525">
        <ele>364.48</ele>
        <time>2017-07-27T06:42:52Z</time>
      </trkpt>
      <trkpt lat="43.6202" lon="3.17527">
        <ele>365.44</ele>
        <time>2017-07-27T06:42:59Z</time>
      </trkpt>
      <trkpt lat="43.62026" lon="3.17529">
        <ele>366.4</ele>
        <time>2017-07-27T06:43:04Z</time>
      </trkpt>
      <trkpt lat="43.62031" lon="3.17529">
        <ele>366.88</ele>
        <time>2017-07-27T06:43:08Z</time>
      </trkpt>
      <trkpt lat="43.62047" lon="3.17541">
        <ele>370.24</ele>
        <time>2017-07-27T06:43:22Z</time>
      </trkpt>
      <trkpt lat="43.62063" lon="3.17549">
        <ele>371.21</ele>
        <time>2017-07-27T06:43:35Z</time>
      </trkpt>
      <trkpt lat="43.62064" lon="3.17569">
        <ele>371.21</ele>
        <time>2017-07-27T06:43:53Z</time>
      </trkpt>
      <trkpt lat="43.62066" lon="3.17572">
        <ele>371.21</ele>
        <time>2017-07-27T06:44:10Z</time>
      </trkpt>
      <trkpt lat="43.6207" lon="3.17574">
        <ele>371.69</ele>
        <time>2017-07-27T06:44:24Z</time>
      </trkpt>
      <trkpt lat="43.62069" lon="3.17575">
        <ele>371.69</ele>
        <time>2017-07-27T06:44:28Z</time>
      </trkpt>
      <trkpt lat="43.62066" lon="3.17575">
        <ele>371.21</ele>
        <time>2017-07-27T06:44:31Z</time>
      </trkpt>
      <trkpt lat="43.62069" lon="3.17563">
        <ele>371.69</ele>
        <time>2017-07-27T06:44:38Z</time>
      </trkpt>
      <trkpt lat="43.62071" lon="3.17556">
        <ele>372.17</ele>
        <time>2017-07-27T06:44:43Z</time>
      </trkpt>
      <trkpt lat="43.62076" lon="3.17555">
        <ele>372.65</ele>
        <time>2017-07-27T06:44:48Z</time>
      </trkpt>
      <trkpt lat="43.6209" lon="3.17558">
        <ele>372.65</ele>
        <time>2017-07-27T06:45:03Z</time>
      </trkpt>
      <trkpt lat="43.62107" lon="3.17559">
        <ele>373.61</ele>
        <time>2017-07-27T06:45:20Z</time>
      </trkpt>
      <trkpt lat="43.62108" lon="3.17559">
        <ele>373.13</ele>
        <time>2017-07-27T06:45:21Z</time>
      </trkpt>
      <trkpt lat="43.62112" lon="3.17558">
        <ele>373.61</ele>
        <time>2017-07-27T06:45:36Z</time>
      </trkpt>
      <trkpt lat="43.62112" lon="3.17559">
        <ele>373.13</ele>
        <time>2017-07-27T06:45:51Z</time>
      </trkpt>
      <trkpt lat="43.62117" lon="3.17558">
        <ele>373.13</ele>
        <time>2017-07-27T06:46:05Z</time>
      </trkpt>
      <trkpt lat="43.62123" lon="3.17551">
        <ele>372.17</ele>
        <time>2017-07-27T06:46:17Z</time>
      </trkpt>
      <trkpt lat="43.62123" lon="3.17551">
        <ele>372.65</ele>
        <time>2017-07-27T06:46:31Z</time>
      </trkpt>
      <trkpt lat="43.62122" lon="3.17548">
        <ele>372.17</ele>
        <time>2017-07-27T06:46:39Z</time>
      </trkpt>
      <trkpt lat="43.62124" lon="3.17542">
        <ele>372.65</ele>
        <time>2017-07-27T06:46:46Z</time>
      </trkpt>
      <trkpt lat="43.62132" lon="3.17543">
        <ele>370.24</ele>
        <time>2017-07-27T06:46:59Z</time>
      </trkpt>
      <trkpt lat="43.62133" lon="3.17542">
        <ele>368.8</ele>
        <time>2017-07-27T06:47:02Z</time>
      </trkpt>
      <trkpt lat="43.62136" lon="3.17538">
        <ele>367.36</ele>
        <time>2017-07-27T06:47:09Z</time>
      </trkpt>
      <trkpt lat="43.62143" lon="3.1754">
        <ele>367.36</ele>
        <time>2017-07-27T06:47:16Z</time>
      </trkpt>
      <trkpt lat="43.62144" lon="3.17539">
        <ele>366.4</ele>
        <time>2017-07-27T06:47:18Z</time>
      </trkpt>
      <trkpt lat="43.6215" lon="3.17536">
        <ele>365.92</ele>
        <time>2017-07-27T06:47:33Z</time>
      </trkpt>
      <trkpt lat="43.62151" lon="3.17535">
        <ele>365.44</ele>
        <time>2017-07-27T06:47:47Z</time>
      </trkpt>
      <trkpt lat="43.62167" lon="3.17525">
        <ele>362.07</ele>
        <time>2017-07-27T06:47:59Z</time>
      </trkpt>
      <trkpt lat="43.62182" lon="3.17513">
        <ele>359.67</ele>
        <time>2017-07-27T06:48:13Z</time>
      </trkpt>
      <trkpt lat="43.62189" lon="3.17506">
        <ele>359.19</ele>
        <time>2017-07-27T06:48:26Z</time>
      </trkpt>
      <trkpt lat="43.62189" lon="3.17502">
        <ele>358.71</ele>
        <time>2017-07-27T06:48:46Z</time>
      </trkpt>
      <trkpt lat="43.62192" lon="3.17499">
        <ele>358.23</ele>
        <time>2017-07-27T06:48:50Z</time>
      </trkpt>
      <trkpt lat="43.62193" lon="3.17494">
        <ele>357.27</ele>
        <time>2017-07-27T06:49:00Z</time>
      </trkpt>
      <trkpt lat="43.62194" lon="3.1749">
        <ele>355.83</ele>
        <time>2017-07-27T06:49:06Z</time>
      </trkpt>
      <trkpt lat="43.62204" lon="3.17496">
        <ele>357.27</ele>
        <time>2017-07-27T06:49:20Z</time>
      </trkpt>
      <trkpt lat="43.62211" lon="3.17499">
        <ele>356.79</ele>
        <time>2017-07-27T06:49:27Z</time>
      </trkpt>
      <trkpt lat="43.6222" lon="3.17511">
        <ele>357.27</ele>
        <time>2017-07-27T06:49:40Z</time>
      </trkpt>
      <trkpt lat="43.62224" lon="3.17517">
        <ele>356.79</ele>
        <time>2017-07-27T06:49:55Z</time>
      </trkpt>
      <trkpt lat="43.62239" lon="3.17539">
        <ele>356.79</ele>
        <time>2017-07-27T06:50:13Z</time>
      </trkpt>
      <trkpt lat="43.6225" lon="3.17555">
        <ele>357.27</ele>
        <time>2017-07-27T06:50:28Z</time>
      </trkpt>
      <trkpt lat="43.62263" lon="3.17568">
        <ele>357.75</ele>
        <time>2017-07-27T06:50:43Z</time>
      </trkpt>
      <trkpt lat="43.62271" lon="3.1758">
        <ele>358.23</ele>
        <time>2017-07-27T06:50:54Z</time>
      </trkpt>
      <trkpt lat="43.62275" lon="3.1759">
        <ele>357.75</ele>
        <time>2017-07-27T06:51:02Z</time>
      </trkpt>
      <trkpt lat="43.62279" lon="3.17601">
        <ele>357.75</ele>
        <time>2017-07-27T06:51:10Z</time>
      </trkpt>
      <trkpt lat="43.62279" lon="3.17607">
        <ele>358.71</ele>
        <time>2017-07-27T06:51:13Z</time>
      </trkpt>
      <trkpt lat="43.62281" lon="3.17609">
        <ele>358.23</ele>
        <time>2017-07-27T06:51:15Z</time>
      </trkpt>
      <trkpt lat="43.62282" lon="3.17615">
        <ele>358.23</ele>
        <time>2017-07-27T06:51:19Z</time>
      </trkpt>
      <trkpt lat="43.62284" lon="3.17622">
        <ele>357.75</ele>
        <time>2017-07-27T06:51:24Z</time>
      </trkpt>
      <trkpt lat="43.62287" lon="3.17626">
        <ele>358.23</ele>
        <time>2017-07-27T06:51:27Z</time>
      </trkpt>
      <trkpt lat="43.62293" lon="3.17643">
        <ele>358.23</ele>
        <time>2017-07-27T06:51:40Z</time>
      </trkpt>
      <trkpt lat="43.62302" lon="3.17657">
        <ele>358.23</ele>
        <time>2017-07-27T06:51:53Z</time>
      </trkpt>
      <trkpt lat="43.62306" lon="3.17662">
        <ele>358.23</ele>
        <time>2017-07-27T06:52:07Z</time>
      </trkpt>
      <trkpt lat="43.62312" lon="3.17674">
        <ele>357.75</ele>
        <time>2017-07-27T06:52:17Z</time>
      </trkpt>
      <trkpt lat="43.62322" lon="3.17694">
        <ele>357.75</ele>
        <time>2017-07-27T06:52:33Z</time>
      </trkpt>
      <trkpt lat="43.62333" lon="3.1771">
        <ele>357.75</ele>
        <time>2017-07-27T06:52:47Z</time>
      </trkpt>
      <trkpt lat="43.62346" lon="3.17729">
        <ele>357.75</ele>
        <time>2017-07-27T06:53:02Z</time>
      </trkpt>
      <trkpt lat="43.6235" lon="3.17737">
        <ele>357.75</ele>
        <time>2017-07-27T06:53:08Z</time>
      </trkpt>
      <trkpt lat="43.62364" lon="3.17753">
        <ele>357.75</ele>
        <time>2017-07-27T06:53:24Z</time>
      </trkpt>
      <trkpt lat="43.6237" lon="3.17762">
        <ele>357.75</ele>
        <time>2017-07-27T06:53:41Z</time>
      </trkpt>
      <trkpt lat="43.62372" lon="3.17772">
        <ele>358.23</ele>
        <time>2017-07-27T06:53:54Z</time>
      </trkpt>
      <trkpt lat="43.62374" lon="3.17777">
        <ele>357.75</ele>
        <time>2017-07-27T06:53:57Z</time>
      </trkpt>
      <trkpt lat="43.62381" lon="3.17798">
        <ele>358.23</ele>
        <time>2017-07-27T06:54:12Z</time>
      </trkpt>
      <trkpt lat="43.62383" lon="3.17808">
        <ele>357.75</ele>
        <time>2017-07-27T06:54:18Z</time>
      </trkpt>
      <trkpt lat="43.62382" lon="3.17833">
        <ele>357.75</ele>
        <time>2017-07-27T06:54:33Z</time>
      </trkpt>
      <trkpt lat="43.62385" lon="3.1785">
        <ele>356.31</ele>
        <time>2017-07-27T06:54:42Z</time>
      </trkpt>
      <trkpt lat="43.62388" lon="3.17856">
        <ele>356.31</ele>
        <time>2017-07-27T06:54:46Z</time>
      </trkpt>
      <trkpt lat="43.62391" lon="3.17876">
        <ele>355.83</ele>
        <time>2017-07-27T06:54:59Z</time>
      </trkpt>
      <trkpt lat="43.6239" lon="3.17879">
        <ele>356.31</ele>
        <time>2017-07-27T06:55:01Z</time>
      </trkpt>
      <trkpt lat="43.62392" lon="3.1791">
        <ele>353.9</ele>
        <time>2017-07-27T06:55:20Z</time>
      </trkpt>
      <trkpt lat="43.62394" lon="3.17933">
        <ele>353.42</ele>
        <time>2017-07-27T06:55:37Z</time>
      </trkpt>
      <trkpt lat="43.62394" lon="3.17947">
        <ele>352.94</ele>
        <time>2017-07-27T06:55:51Z</time>
      </trkpt>
      <trkpt lat="43.62397" lon="3.17961">
        <ele>351.98</ele>
        <time>2017-07-27T06:56:05Z</time>
      </trkpt>
      <trkpt lat="43.62397" lon="3.17965">
        <ele>351.98</ele>
        <time>2017-07-27T06:56:21Z</time>
      </trkpt>
      <trkpt lat="43.62397" lon="3.17965">
        <ele>351.98</ele>
        <time>2017-07-27T06:56:45Z</time>
      </trkpt>
      <trkpt lat="43.62397" lon="3.17965">
        <ele>351.98</ele>
        <time>2017-07-27T06:57:06Z</time>
      </trkpt>
      <trkpt lat="43.62397" lon="3.17965">
        <ele>351.98</ele>
        <time>2017-07-27T06:57:33Z</time>
      </trkpt>
      <trkpt lat="43.62397" lon="3.17967">
        <ele>352.46</ele>
        <time>2017-07-27T06:57:54Z</time>
      </trkpt>
      <trkpt lat="43.62397" lon="3.17964">
        <ele>352.46</ele>
        <time>2017-07-27T06:58:35Z</time>
      </trkpt>
      <trkpt lat="43.62398" lon="3.17965">
        <ele>352.46</ele>
        <time>2017-07-27T06:59:21Z</time>
      </trkpt>
      <trkpt lat="43.62398" lon="3.17966">
        <ele>352.46</ele>
        <time>2017-07-27T06:59:39Z</time>
      </trkpt>
      <trkpt lat="43.62399" lon="3.17966">
        <ele>352.46</ele>
        <time>2017-07-27T06:59:57Z</time>
      </trkpt>
      <trkpt lat="43.624" lon="3.17967">
        <ele>352.94</ele>
        <time>2017-07-27T07:00:16Z</time>
      </trkpt>
      <trkpt lat="43.62403" lon="3.17972">
        <ele>352.94</ele>
        <time>2017-07-27T07:00:35Z</time>
      </trkpt>
      <trkpt lat="43.62408" lon="3.17982">
        <ele>352.46</ele>
        <time>2017-07-27T07:00:47Z</time>
      </trkpt>
      <trkpt lat="43.62417" lon="3.17999">
        <ele>351.02</ele>
        <time>2017-07-27T07:01:02Z</time>
      </trkpt>
      <trkpt lat="43.62425" lon="3.18016">
        <ele>351.5</ele>
        <time>2017-07-27T07:01:16Z</time>
      </trkpt>
      <trkpt lat="43.62432" lon="3.18029">
        <ele>351.98</ele>
        <time>2017-07-27T07:01:27Z</time>
      </trkpt>
      <trkpt lat="43.62447" lon="3.18039">
        <ele>351.98</ele>
        <time>2017-07-27T07:01:42Z</time>
      </trkpt>
      <trkpt lat="43.6245" lon="3.18038">
        <ele>351.98</ele>
        <time>2017-07-27T07:01:45Z</time>
      </trkpt>
      <trkpt lat="43.6246" lon="3.1804">
        <ele>352.94</ele>
        <time>2017-07-27T07:01:57Z</time>
      </trkpt>
      <trkpt lat="43.62467" lon="3.18053">
        <ele>353.9</ele>
        <time>2017-07-27T07:02:10Z</time>
      </trkpt>
      <trkpt lat="43.62468" lon="3.18054">
        <ele>354.38</ele>
        <time>2017-07-27T07:02:11Z</time>
      </trkpt>
      <trkpt lat="43.62473" lon="3.18065">
        <ele>354.86</ele>
        <time>2017-07-27T07:02:22Z</time>
      </trkpt>
      <trkpt lat="43.62481" lon="3.18079">
        <ele>354.86</ele>
        <time>2017-07-27T07:02:37Z</time>
      </trkpt>
      <trkpt lat="43.62483" lon="3.18081">
        <ele>354.86</ele>
        <time>2017-07-27T07:02:40Z</time>
      </trkpt>
      <trkpt lat="43.62489" lon="3.18089">
        <ele>353.9</ele>
        <time>2017-07-27T07:02:48Z</time>
      </trkpt>
      <trkpt lat="43.62491" lon="3.18092">
        <ele>353.42</ele>
        <time>2017-07-27T07:02:50Z</time>
      </trkpt>
      <trkpt lat="43.62495" lon="3.18098">
        <ele>353.42</ele>
        <time>2017-07-27T07:02:56Z</time>
      </trkpt>
      <trkpt lat="43.62498" lon="3.18103">
        <ele>352.46</ele>
        <time>2017-07-27T07:03:00Z</time>
      </trkpt>
      <trkpt lat="43.62499" lon="3.1812">
        <ele>351.98</ele>
        <time>2017-07-27T07:03:12Z</time>
      </trkpt>
      <trkpt lat="43.62499" lon="3.18122">
        <ele>351.5</ele>
        <time>2017-07-27T07:03:13Z</time>
      </trkpt>
      <trkpt lat="43.62501" lon="3.18124">
        <ele>351.5</ele>
        <time>2017-07-27T07:03:15Z</time>
      </trkpt>
      <trkpt lat="43.62503" lon="3.18139">
        <ele>351.5</ele>
        <time>2017-07-27T07:03:27Z</time>
      </trkpt>
      <trkpt lat="43.62506" lon="3.18145">
        <ele>351.5</ele>
        <time>2017-07-27T07:03:32Z</time>
      </trkpt>
      <trkpt lat="43.62509" lon="3.18157">
        <ele>350.54</ele>
        <time>2017-07-27T07:03:42Z</time>
      </trkpt>
      <trkpt lat="43.62512" lon="3.1817">
        <ele>349.58</ele>
        <time>2017-07-27T07:03:53Z</time>
      </trkpt>
      <trkpt lat="43.62518" lon="3.18183">
        <ele>350.54</ele>
        <time>2017-07-27T07:04:05Z</time>
      </trkpt>
      <trkpt lat="43.62522" lon="3.18194">
        <ele>350.54</ele>
        <time>2017-07-27T07:04:14Z</time>
      </trkpt>
      <trkpt lat="43.62528" lon="3.18207">
        <ele>350.54</ele>
        <time>2017-07-27T07:04:25Z</time>
      </trkpt>
      <trkpt lat="43.62534" lon="3.18218">
        <ele>351.98</ele>
        <time>2017-07-27T07:04:37Z</time>
      </trkpt>
      <trkpt lat="43.62535" lon="3.18221">
        <ele>351.98</ele>
        <time>2017-07-27T07:04:39Z</time>
      </trkpt>
      <trkpt lat="43.62543" lon="3.18232">
        <ele>351.98</ele>
        <time>2017-07-27T07:04:51Z</time>
      </trkpt>
      <trkpt lat="43.62549" lon="3.18237">
        <ele>351.98</ele>
        <time>2017-07-27T07:04:57Z</time>
      </trkpt>
      <trkpt lat="43.62558" lon="3.18246">
        <ele>351.5</ele>
        <time>2017-07-27T07:05:10Z</time>
      </trkpt>
      <trkpt lat="43.62575" lon="3.18262">
        <ele>350.54</ele>
        <time>2017-07-27T07:05:30Z</time>
      </trkpt>
      <trkpt lat="43.62587" lon="3.18273">
        <ele>349.58</ele>
        <time>2017-07-27T07:05:42Z</time>
      </trkpt>
      <trkpt lat="43.62594" lon="3.18278">
        <ele>350.06</ele>
        <time>2017-07-27T07:05:51Z</time>
      </trkpt>
      <trkpt lat="43.62595" lon="3.18281">
        <ele>349.58</ele>
        <time>2017-07-27T07:05:54Z</time>
      </trkpt>
      <trkpt lat="43.62606" lon="3.18299">
        <ele>349.1</ele>
        <time>2017-07-27T07:06:08Z</time>
      </trkpt>
      <trkpt lat="43.62607" lon="3.18301">
        <ele>349.1</ele>
        <time>2017-07-27T07:06:10Z</time>
      </trkpt>
      <trkpt lat="43.62612" lon="3.18312">
        <ele>349.1</ele>
        <time>2017-07-27T07:06:19Z</time>
      </trkpt>
      <trkpt lat="43.6262" lon="3.18319">
        <ele>349.1</ele>
        <time>2017-07-27T07:06:28Z</time>
      </trkpt>
      <trkpt lat="43.6263" lon="3.18329">
        <ele>349.58</ele>
        <time>2017-07-27T07:06:39Z</time>
      </trkpt>
      <trkpt lat="43.62633" lon="3.18332">
        <ele>350.06</ele>
        <time>2017-07-27T07:06:44Z</time>
      </trkpt>
      <trkpt lat="43.62635" lon="3.18336">
        <ele>350.06</ele>
        <time>2017-07-27T07:06:48Z</time>
      </trkpt>
      <trkpt lat="43.62646" lon="3.18346">
        <ele>350.54</ele>
        <time>2017-07-27T07:07:00Z</time>
      </trkpt>
      <trkpt lat="43.62648" lon="3.1835">
        <ele>350.54</ele>
        <time>2017-07-27T07:07:04Z</time>
      </trkpt>
      <trkpt lat="43.62649" lon="3.18353">
        <ele>350.54</ele>
        <time>2017-07-27T07:07:06Z</time>
      </trkpt>
      <trkpt lat="43.62649" lon="3.18357">
        <ele>350.54</ele>
        <time>2017-07-27T07:07:08Z</time>
      </trkpt>
      <trkpt lat="43.62653" lon="3.18372">
        <ele>351.98</ele>
        <time>2017-07-27T07:07:20Z</time>
      </trkpt>
      <trkpt lat="43.62657" lon="3.18391">
        <ele>352.46</ele>
        <time>2017-07-27T07:07:34Z</time>
      </trkpt>
      <trkpt lat="43.62662" lon="3.18401">
        <ele>352.94</ele>
        <time>2017-07-27T07:07:43Z</time>
      </trkpt>
      <trkpt lat="43.62673" lon="3.18414">
        <ele>352.46</ele>
        <time>2017-07-27T07:07:58Z</time>
      </trkpt>
      <trkpt lat="43.62681" lon="3.18419">
        <ele>350.54</ele>
        <time>2017-07-27T07:08:10Z</time>
      </trkpt>
      <trkpt lat="43.62693" lon="3.18427">
        <ele>349.1</ele>
        <time>2017-07-27T07:08:24Z</time>
      </trkpt>
      <trkpt lat="43.62708" lon="3.1843">
        <ele>348.13</ele>
        <time>2017-07-27T07:08:40Z</time>
      </trkpt>
      <trkpt lat="43.62722" lon="3.18434">
        <ele>345.25</ele>
        <time>2017-07-27T07:08:56Z</time>
      </trkpt>
      <trkpt lat="43.62738" lon="3.18451">
        <ele>345.73</ele>
        <time>2017-07-27T07:09:12Z</time>
      </trkpt>
      <trkpt lat="43.6275" lon="3.18458">
        <ele>346.69</ele>
        <time>2017-07-27T07:09:24Z</time>
      </trkpt>
      <trkpt lat="43.62761" lon="3.18464">
        <ele>348.13</ele>
        <time>2017-07-27T07:09:37Z</time>
      </trkpt>
      <trkpt lat="43.62769" lon="3.18462">
        <ele>349.1</ele>
        <time>2017-07-27T07:09:45Z</time>
      </trkpt>
      <trkpt lat="43.62778" lon="3.18454">
        <ele>349.1</ele>
        <time>2017-07-27T07:09:57Z</time>
      </trkpt>
      <trkpt lat="43.62794" lon="3.18458">
        <ele>350.54</ele>
        <time>2017-07-27T07:10:13Z</time>
      </trkpt>
      <trkpt lat="43.628" lon="3.18457">
        <ele>349.58</ele>
        <time>2017-07-27T07:10:19Z</time>
      </trkpt>
      <trkpt lat="43.62811" lon="3.18461">
        <ele>348.13</ele>
        <time>2017-07-27T07:10:33Z</time>
      </trkpt>
      <trkpt lat="43.62812" lon="3.18462">
        <ele>347.65</ele>
        <time>2017-07-27T07:10:34Z</time>
      </trkpt>
      <trkpt lat="43.6282" lon="3.18463">
        <ele>346.21</ele>
        <time>2017-07-27T07:10:47Z</time>
      </trkpt>
      <trkpt lat="43.62826" lon="3.18466">
        <ele>345.73</ele>
        <time>2017-07-27T07:10:56Z</time>
      </trkpt>
      <trkpt lat="43.62839" lon="3.1848">
        <ele>342.85</ele>
        <time>2017-07-27T07:11:12Z</time>
      </trkpt>
      <trkpt lat="43.62847" lon="3.18491">
        <ele>341.89</ele>
        <time>2017-07-27T07:11:22Z</time>
      </trkpt>
      <trkpt lat="43.62858" lon="3.18487">
        <ele>341.41</ele>
        <time>2017-07-27T07:11:36Z</time>
      </trkpt>
      <trkpt lat="43.6287" lon="3.18489">
        <ele>340.44</ele>
        <time>2017-07-27T07:11:51Z</time>
      </trkpt>
      <trkpt lat="43.6288" lon="3.1849">
        <ele>339.48</ele>
        <time>2017-07-27T07:12:04Z</time>
      </trkpt>
      <trkpt lat="43.6289" lon="3.18489">
        <ele>339</ele>
        <time>2017-07-27T07:12:22Z</time>
      </trkpt>
      <trkpt lat="43.62891" lon="3.18486">
        <ele>338.52</ele>
        <time>2017-07-27T07:12:37Z</time>
      </trkpt>
      <trkpt lat="43.62889" lon="3.18484">
        <ele>338.04</ele>
        <time>2017-07-27T07:12:52Z</time>
      </trkpt>
      <trkpt lat="43.6288" lon="3.18473">
        <ele>336.6</ele>
        <time>2017-07-27T07:13:07Z</time>
      </trkpt>
      <trkpt lat="43.62869" lon="3.18469">
        <ele>335.64</ele>
        <time>2017-07-27T07:13:20Z</time>
      </trkpt>
      <trkpt lat="43.62866" lon="3.18468">
        <ele>335.16</ele>
        <time>2017-07-27T07:13:23Z</time>
      </trkpt>
      <trkpt lat="43.62852" lon="3.18456">
        <ele>334.2</ele>
        <time>2017-07-27T07:13:40Z</time>
      </trkpt>
      <trkpt lat="43.62842" lon="3.18433">
        <ele>332.27</ele>
        <time>2017-07-27T07:13:54Z</time>
      </trkpt>
      <trkpt lat="43.62846" lon="3.18406">
        <ele>330.83</ele>
        <time>2017-07-27T07:14:11Z</time>
      </trkpt>
      <trkpt lat="43.62845" lon="3.18377">
        <ele>329.39</ele>
        <time>2017-07-27T07:14:29Z</time>
      </trkpt>
      <trkpt lat="43.6285" lon="3.18349">
        <ele>326.99</ele>
        <time>2017-07-27T07:14:47Z</time>
      </trkpt>
      <trkpt lat="43.62853" lon="3.18334">
        <ele>326.5</ele>
        <time>2017-07-27T07:14:57Z</time>
      </trkpt>
      <trkpt lat="43.62855" lon="3.18314">
        <ele>325.54</ele>
        <time>2017-07-27T07:15:10Z</time>
      </trkpt>
      <trkpt lat="43.62857" lon="3.18305">
        <ele>325.06</ele>
        <time>2017-07-27T07:15:16Z</time>
      </trkpt>
      <trkpt lat="43.62873" lon="3.18276">
        <ele>323.14</ele>
        <time>2017-07-27T07:15:38Z</time>
      </trkpt>
      <trkpt lat="43.62888" lon="3.1826">
        <ele>321.7</ele>
        <time>2017-07-27T07:15:55Z</time>
      </trkpt>
      <trkpt lat="43.62891" lon="3.18258">
        <ele>322.18</ele>
        <time>2017-07-27T07:15:58Z</time>
      </trkpt>
      <trkpt lat="43.62895" lon="3.18255">
        <ele>321.22</ele>
        <time>2017-07-27T07:16:02Z</time>
      </trkpt>
      <trkpt lat="43.62901" lon="3.18249">
        <ele>320.74</ele>
        <time>2017-07-27T07:16:08Z</time>
      </trkpt>
      <trkpt lat="43.62918" lon="3.18236">
        <ele>319.3</ele>
        <time>2017-07-27T07:16:26Z</time>
      </trkpt>
      <trkpt lat="43.62923" lon="3.18235">
        <ele>317.85</ele>
        <time>2017-07-27T07:16:39Z</time>
      </trkpt>
      <trkpt lat="43.62922" lon="3.18236">
        <ele>318.33</ele>
        <time>2017-07-27T07:17:00Z</time>
      </trkpt>
      <trkpt lat="43.62923" lon="3.18239">
        <ele>317.85</ele>
        <time>2017-07-27T07:17:24Z</time>
      </trkpt>
      <trkpt lat="43.62926" lon="3.18256">
        <ele>316.41</ele>
        <time>2017-07-27T07:17:39Z</time>
      </trkpt>
      <trkpt lat="43.62929" lon="3.18277">
        <ele>315.45</ele>
        <time>2017-07-27T07:17:55Z</time>
      </trkpt>
      <trkpt lat="43.6293" lon="3.1828">
        <ele>315.45</ele>
        <time>2017-07-27T07:17:57Z</time>
      </trkpt>
      <trkpt lat="43.6293" lon="3.18286">
        <ele>314.49</ele>
        <time>2017-07-27T07:18:01Z</time>
      </trkpt>
      <trkpt lat="43.62936" lon="3.18306">
        <ele>313.05</ele>
        <time>2017-07-27T07:18:17Z</time>
      </trkpt>
      <trkpt lat="43.62948" lon="3.18311">
        <ele>312.09</ele>
        <time>2017-07-27T07:18:32Z</time>
      </trkpt>
      <trkpt lat="43.62959" lon="3.18301">
        <ele>311.6</ele>
        <time>2017-07-27T07:18:45Z</time>
      </trkpt>
      <trkpt lat="43.62977" lon="3.18302">
        <ele>311.6</ele>
        <time>2017-07-27T07:19:02Z</time>
      </trkpt>
      <trkpt lat="43.62989" lon="3.18302">
        <ele>310.16</ele>
        <time>2017-07-27T07:19:14Z</time>
      </trkpt>
      <trkpt lat="43.62997" lon="3.183">
        <ele>309.2</ele>
        <time>2017-07-27T07:19:21Z</time>
      </trkpt>
      <trkpt lat="43.63" lon="3.18299">
        <ele>309.2</ele>
        <time>2017-07-27T07:19:24Z</time>
      </trkpt>
      <trkpt lat="43.63019" lon="3.18299">
        <ele>308.72</ele>
        <time>2017-07-27T07:19:39Z</time>
      </trkpt>
      <trkpt lat="43.63025" lon="3.18299">
        <ele>308.72</ele>
        <time>2017-07-27T07:19:45Z</time>
      </trkpt>
      <trkpt lat="43.63041" lon="3.18306">
        <ele>310.16</ele>
        <time>2017-07-27T07:20:01Z</time>
      </trkpt>
      <trkpt lat="43.63055" lon="3.18311">
        <ele>311.12</ele>
        <time>2017-07-27T07:20:16Z</time>
      </trkpt>
      <trkpt lat="43.63068" lon="3.18314">
        <ele>312.57</ele>
        <time>2017-07-27T07:20:30Z</time>
      </trkpt>
      <trkpt lat="43.63084" lon="3.18313">
        <ele>313.53</ele>
        <time>2017-07-27T07:20:48Z</time>
      </trkpt>
      <trkpt lat="43.63101" lon="3.18317">
        <ele>314.49</ele>
        <time>2017-07-27T07:21:04Z</time>
      </trkpt>
      <trkpt lat="43.63116" lon="3.18319">
        <ele>315.93</ele>
        <time>2017-07-27T07:21:21Z</time>
      </trkpt>
      <trkpt lat="43.63133" lon="3.18322">
        <ele>316.89</ele>
        <time>2017-07-27T07:21:35Z</time>
      </trkpt>
      <trkpt lat="43.63135" lon="3.18322">
        <ele>316.89</ele>
        <time>2017-07-27T07:21:37Z</time>
      </trkpt>
      <trkpt lat="43.63151" lon="3.18319">
        <ele>317.85</ele>
        <time>2017-07-27T07:21:53Z</time>
      </trkpt>
      <trkpt lat="43.63164" lon="3.18315">
        <ele>318.81</ele>
        <time>2017-07-27T07:22:07Z</time>
      </trkpt>
      <trkpt lat="43.63178" lon="3.1831">
        <ele>319.78</ele>
        <time>2017-07-27T07:22:22Z</time>
      </trkpt>
      <trkpt lat="43.63189" lon="3.18302">
        <ele>320.74</ele>
        <time>2017-07-27T07:22:37Z</time>
      </trkpt>
      <trkpt lat="43.63203" lon="3.18296">
        <ele>320.74</ele>
        <time>2017-07-27T07:22:52Z</time>
      </trkpt>
      <trkpt lat="43.63223" lon="3.1829">
        <ele>321.22</ele>
        <time>2017-07-27T07:23:09Z</time>
      </trkpt>
      <trkpt lat="43.6324" lon="3.18282">
        <ele>321.7</ele>
        <time>2017-07-27T07:23:24Z</time>
      </trkpt>
      <trkpt lat="43.63253" lon="3.18277">
        <ele>322.66</ele>
        <time>2017-07-27T07:23:36Z</time>
      </trkpt>
      <trkpt lat="43.63266" lon="3.18273">
        <ele>323.62</ele>
        <time>2017-07-27T07:23:50Z</time>
      </trkpt>
      <trkpt lat="43.63282" lon="3.18273">
        <ele>323.14</ele>
        <time>2017-07-27T07:24:06Z</time>
      </trkpt>
      <trkpt lat="43.63295" lon="3.18272">
        <ele>323.62</ele>
        <time>2017-07-27T07:24:20Z</time>
      </trkpt>
      <trkpt lat="43.63305" lon="3.18265">
        <ele>326.02</ele>
        <time>2017-07-27T07:24:35Z</time>
      </trkpt>
      <trkpt lat="43.63314" lon="3.18253">
        <ele>327.47</ele>
        <time>2017-07-27T07:24:48Z</time>
      </trkpt>
      <trkpt lat="43.63329" lon="3.1825">
        <ele>328.43</ele>
        <time>2017-07-27T07:25:03Z</time>
      </trkpt>
      <trkpt lat="43.63345" lon="3.18252">
        <ele>328.91</ele>
        <time>2017-07-27T07:25:19Z</time>
      </trkpt>
      <trkpt lat="43.6336" lon="3.18251">
        <ele>329.87</ele>
        <time>2017-07-27T07:25:36Z</time>
      </trkpt>
      <trkpt lat="43.63365" lon="3.18251">
        <ele>330.83</ele>
        <time>2017-07-27T07:25:41Z</time>
      </trkpt>
      <trkpt lat="43.63371" lon="3.18253">
        <ele>330.83</ele>
        <time>2017-07-27T07:25:46Z</time>
      </trkpt>
      <trkpt lat="43.63373" lon="3.18255">
        <ele>331.31</ele>
        <time>2017-07-27T07:25:48Z</time>
      </trkpt>
      <trkpt lat="43.63388" lon="3.18257">
        <ele>330.83</ele>
        <time>2017-07-27T07:26:03Z</time>
      </trkpt>
      <trkpt lat="43.634" lon="3.18259">
        <ele>333.23</ele>
        <time>2017-07-27T07:26:16Z</time>
      </trkpt>
      <trkpt lat="43.63415" lon="3.18255">
        <ele>335.16</ele>
        <time>2017-07-27T07:26:32Z</time>
      </trkpt>
      <trkpt lat="43.63425" lon="3.1826">
        <ele>335.16</ele>
        <time>2017-07-27T07:26:46Z</time>
      </trkpt>
      <trkpt lat="43.63439" lon="3.18266">
        <ele>335.64</ele>
        <time>2017-07-27T07:26:59Z</time>
      </trkpt>
      <trkpt lat="43.63448" lon="3.18267">
        <ele>338.52</ele>
        <time>2017-07-27T07:27:13Z</time>
      </trkpt>
      <trkpt lat="43.63462" lon="3.18269">
        <ele>340.92</ele>
        <time>2017-07-27T07:27:29Z</time>
      </trkpt>
      <trkpt lat="43.63476" lon="3.18279">
        <ele>341.89</ele>
        <time>2017-07-27T07:27:43Z</time>
      </trkpt>
      <trkpt lat="43.63488" lon="3.1828">
        <ele>343.33</ele>
        <time>2017-07-27T07:27:58Z</time>
      </trkpt>
      <trkpt lat="43.63501" lon="3.18288">
        <ele>342.37</ele>
        <time>2017-07-27T07:28:12Z</time>
      </trkpt>
      <trkpt lat="43.63515" lon="3.18295">
        <ele>342.85</ele>
        <time>2017-07-27T07:28:29Z</time>
      </trkpt>
      <trkpt lat="43.63522" lon="3.18313">
        <ele>345.25</ele>
        <time>2017-07-27T07:28:46Z</time>
      </trkpt>
      <trkpt lat="43.63529" lon="3.18326">
        <ele>347.65</ele>
        <time>2017-07-27T07:29:01Z</time>
      </trkpt>
      <trkpt lat="43.6353" lon="3.18336">
        <ele>350.54</ele>
        <time>2017-07-27T07:29:17Z</time>
      </trkpt>
      <trkpt lat="43.63537" lon="3.1835">
        <ele>353.42</ele>
        <time>2017-07-27T07:29:34Z</time>
      </trkpt>
      <trkpt lat="43.63545" lon="3.18358">
        <ele>355.83</ele>
        <time>2017-07-27T07:29:51Z</time>
      </trkpt>
      <trkpt lat="43.63551" lon="3.18364">
        <ele>357.27</ele>
        <time>2017-07-27T07:30:00Z</time>
      </trkpt>
      <trkpt lat="43.63554" lon="3.18371">
        <ele>358.71</ele>
        <time>2017-07-27T07:30:10Z</time>
      </trkpt>
      <trkpt lat="43.63553" lon="3.1838">
        <ele>360.15</ele>
        <time>2017-07-27T07:30:21Z</time>
      </trkpt>
      <trkpt lat="43.63553" lon="3.18387">
        <ele>362.55</ele>
        <time>2017-07-27T07:30:36Z</time>
      </trkpt>
      <trkpt lat="43.63559" lon="3.18395">
        <ele>364</ele>
        <time>2017-07-27T07:30:49Z</time>
      </trkpt>
      <trkpt lat="43.63563" lon="3.18397">
        <ele>365.92</ele>
        <time>2017-07-27T07:31:02Z</time>
      </trkpt>
      <trkpt lat="43.63568" lon="3.18403">
        <ele>368.32</ele>
        <time>2017-07-27T07:31:16Z</time>
      </trkpt>
      <trkpt lat="43.63574" lon="3.1841">
        <ele>370.24</ele>
        <time>2017-07-27T07:31:28Z</time>
      </trkpt>
      <trkpt lat="43.63581" lon="3.18413">
        <ele>371.69</ele>
        <time>2017-07-27T07:31:39Z</time>
      </trkpt>
      <trkpt lat="43.63587" lon="3.18417">
        <ele>374.09</ele>
        <time>2017-07-27T07:31:53Z</time>
      </trkpt>
      <trkpt lat="43.63595" lon="3.18416">
        <ele>374.09</ele>
        <time>2017-07-27T07:32:05Z</time>
      </trkpt>
      <trkpt lat="43.63607" lon="3.1842">
        <ele>375.53</ele>
        <time>2017-07-27T07:32:18Z</time>
      </trkpt>
      <trkpt lat="43.63612" lon="3.18427">
        <ele>376.49</ele>
        <time>2017-07-27T07:32:30Z</time>
      </trkpt>
      <trkpt lat="43.63614" lon="3.1844">
        <ele>378.42</ele>
        <time>2017-07-27T07:32:45Z</time>
      </trkpt>
      <trkpt lat="43.63616" lon="3.18451">
        <ele>379.86</ele>
        <time>2017-07-27T07:32:57Z</time>
      </trkpt>
      <trkpt lat="43.63622" lon="3.18466">
        <ele>381.78</ele>
        <time>2017-07-27T07:33:11Z</time>
      </trkpt>
      <trkpt lat="43.63622" lon="3.18483">
        <ele>383.22</ele>
        <time>2017-07-27T07:33:26Z</time>
      </trkpt>
      <trkpt lat="43.63622" lon="3.18492">
        <ele>384.18</ele>
        <time>2017-07-27T07:33:33Z</time>
      </trkpt>
      <trkpt lat="43.63621" lon="3.18504">
        <ele>386.11</ele>
        <time>2017-07-27T07:33:45Z</time>
      </trkpt>
      <trkpt lat="43.63619" lon="3.1852">
        <ele>387.55</ele>
        <time>2017-07-27T07:33:59Z</time>
      </trkpt>
      <trkpt lat="43.63618" lon="3.18532">
        <ele>387.55</ele>
        <time>2017-07-27T07:34:15Z</time>
      </trkpt>
      <trkpt lat="43.63618" lon="3.18531">
        <ele>387.07</ele>
        <time>2017-07-27T07:34:27Z</time>
      </trkpt>
      <trkpt lat="43.63616" lon="3.18534">
        <ele>386.59</ele>
        <time>2017-07-27T07:34:58Z</time>
      </trkpt>
      <trkpt lat="43.63616" lon="3.18536">
        <ele>387.07</ele>
        <time>2017-07-27T07:35:25Z</time>
      </trkpt>
      <trkpt lat="43.63617" lon="3.18539">
        <ele>387.07</ele>
        <time>2017-07-27T07:35:54Z</time>
      </trkpt>
      <trkpt lat="43.63618" lon="3.18536">
        <ele>388.03</ele>
        <time>2017-07-27T07:36:08Z</time>
      </trkpt>
      <trkpt lat="43.63617" lon="3.18532">
        <ele>387.55</ele>
        <time>2017-07-27T07:36:39Z</time>
      </trkpt>
      <trkpt lat="43.63618" lon="3.18528">
        <ele>388.03</ele>
        <time>2017-07-27T07:37:04Z</time>
      </trkpt>
      <trkpt lat="43.63617" lon="3.1853">
        <ele>388.03</ele>
        <time>2017-07-27T07:37:31Z</time>
      </trkpt>
      <trkpt lat="43.63618" lon="3.18531">
        <ele>388.51</ele>
        <time>2017-07-27T07:37:58Z</time>
      </trkpt>
      <trkpt lat="43.63618" lon="3.18532">
        <ele>388.51</ele>
        <time>2017-07-27T07:38:28Z</time>
      </trkpt>
      <trkpt lat="43.63616" lon="3.18533">
        <ele>388.51</ele>
        <time>2017-07-27T07:39:01Z</time>
      </trkpt>
      <trkpt lat="43.63618" lon="3.18534">
        <ele>388.51</ele>
        <time>2017-07-27T07:39:24Z</time>
      </trkpt>
      <trkpt lat="43.63618" lon="3.18532">
        <ele>388.99</ele>
        <time>2017-07-27T07:39:43Z</time>
      </trkpt>
      <trkpt lat="43.63618" lon="3.18532">
        <ele>388.51</ele>
        <time>2017-07-27T07:40:06Z</time>
      </trkpt>
      <trkpt lat="43.63617" lon="3.18528">
        <ele>388.99</ele>
        <time>2017-07-27T07:40:27Z</time>
      </trkpt>
      <trkpt lat="43.63619" lon="3.1853">
        <ele>388.99</ele>
        <time>2017-07-27T07:40:50Z</time>
      </trkpt>
      <trkpt lat="43.63619" lon="3.18527">
        <ele>388.99</ele>
        <time>2017-07-27T07:41:16Z</time>
      </trkpt>
      <trkpt lat="43.63619" lon="3.18529">
        <ele>389.47</ele>
        <time>2017-07-27T07:41:33Z</time>
      </trkpt>
      <trkpt lat="43.63617" lon="3.18529">
        <ele>388.99</ele>
        <time>2017-07-27T07:42:03Z</time>
      </trkpt>
      <trkpt lat="43.63616" lon="3.18528">
        <ele>389.47</ele>
        <time>2017-07-27T07:42:26Z</time>
      </trkpt>
      <trkpt lat="43.63617" lon="3.18529">
        <ele>389.47</ele>
        <time>2017-07-27T07:42:56Z</time>
      </trkpt>
      <trkpt lat="43.63619" lon="3.18529">
        <ele>389.47</ele>
        <time>2017-07-27T07:43:18Z</time>
      </trkpt>
      <trkpt lat="43.63618" lon="3.18529">
        <ele>390.43</ele>
        <time>2017-07-27T07:43:47Z</time>
      </trkpt>
      <trkpt lat="43.63618" lon="3.18533">
        <ele>390.43</ele>
        <time>2017-07-27T07:44:10Z</time>
      </trkpt>
      <trkpt lat="43.63617" lon="3.18533">
        <ele>390.43</ele>
        <time>2017-07-27T07:44:48Z</time>
      </trkpt>
      <trkpt lat="43.63616" lon="3.18529">
        <ele>390.91</ele>
        <time>2017-07-27T07:45:13Z</time>
      </trkpt>
      <trkpt lat="43.63618" lon="3.1853">
        <ele>390.43</ele>
        <time>2017-07-27T07:45:35Z</time>
      </trkpt>
      <trkpt lat="43.63619" lon="3.18531">
        <ele>390.43</ele>
        <time>2017-07-27T07:46:11Z</time>
      </trkpt>
      <trkpt lat="43.63618" lon="3.18531">
        <ele>391.39</ele>
        <time>2017-07-27T07:46:34Z</time>
      </trkpt>
      <trkpt lat="43.6362" lon="3.18531">
        <ele>390.91</ele>
        <time>2017-07-27T07:47:06Z</time>
      </trkpt>
      <trkpt lat="43.63618" lon="3.18532">
        <ele>390.91</ele>
        <time>2017-07-27T07:47:31Z</time>
      </trkpt>
      <trkpt lat="43.63621" lon="3.18536">
        <ele>390.43</ele>
        <time>2017-07-27T07:47:46Z</time>
      </trkpt>
      <trkpt lat="43.63621" lon="3.18538">
        <ele>390.91</ele>
        <time>2017-07-27T07:47:48Z</time>
      </trkpt>
      <trkpt lat="43.63624" lon="3.18559">
        <ele>390.91</ele>
        <time>2017-07-27T07:48:03Z</time>
      </trkpt>
      <trkpt lat="43.63638" lon="3.18563">
        <ele>391.87</ele>
        <time>2017-07-27T07:48:17Z</time>
      </trkpt>
      <trkpt lat="43.63649" lon="3.18563">
        <ele>392.84</ele>
        <time>2017-07-27T07:48:27Z</time>
      </trkpt>
      <trkpt lat="43.63667" lon="3.1856">
        <ele>393.32</ele>
        <time>2017-07-27T07:48:41Z</time>
      </trkpt>
      <trkpt lat="43.63682" lon="3.18548">
        <ele>393.32</ele>
        <time>2017-07-27T07:48:56Z</time>
      </trkpt>
      <trkpt lat="43.63697" lon="3.1854">
        <ele>395.24</ele>
        <time>2017-07-27T07:49:12Z</time>
      </trkpt>
      <trkpt lat="43.63711" lon="3.18536">
        <ele>396.2</ele>
        <time>2017-07-27T07:49:26Z</time>
      </trkpt>
      <trkpt lat="43.63719" lon="3.18535">
        <ele>397.64</ele>
        <time>2017-07-27T07:49:33Z</time>
      </trkpt>
      <trkpt lat="43.63723" lon="3.18538">
        <ele>398.12</ele>
        <time>2017-07-27T07:49:37Z</time>
      </trkpt>
      <trkpt lat="43.63724" lon="3.1854">
        <ele>397.64</ele>
        <time>2017-07-27T07:49:39Z</time>
      </trkpt>
      <trkpt lat="43.63726" lon="3.18544">
        <ele>398.6</ele>
        <time>2017-07-27T07:49:42Z</time>
      </trkpt>
      <trkpt lat="43.63726" lon="3.18567">
        <ele>401.01</ele>
        <time>2017-07-27T07:49:58Z</time>
      </trkpt>
      <trkpt lat="43.63726" lon="3.18569">
        <ele>401.49</ele>
        <time>2017-07-27T07:50:00Z</time>
      </trkpt>
      <trkpt lat="43.63723" lon="3.18574">
        <ele>401.49</ele>
        <time>2017-07-27T07:50:04Z</time>
      </trkpt>
      <trkpt lat="43.63722" lon="3.18576">
        <ele>401.97</ele>
        <time>2017-07-27T07:50:06Z</time>
      </trkpt>
      <trkpt lat="43.63715" lon="3.1859">
        <ele>404.85</ele>
        <time>2017-07-27T07:50:20Z</time>
      </trkpt>
      <trkpt lat="43.63711" lon="3.186">
        <ele>406.77</ele>
        <time>2017-07-27T07:50:31Z</time>
      </trkpt>
      <trkpt lat="43.63708" lon="3.18604">
        <ele>407.26</ele>
        <time>2017-07-27T07:50:35Z</time>
      </trkpt>
      <trkpt lat="43.63707" lon="3.18608">
        <ele>407.26</ele>
        <time>2017-07-27T07:50:38Z</time>
      </trkpt>
      <trkpt lat="43.63705" lon="3.1861">
        <ele>407.74</ele>
        <time>2017-07-27T07:50:40Z</time>
      </trkpt>
      <trkpt lat="43.63704" lon="3.18613">
        <ele>408.22</ele>
        <time>2017-07-27T07:50:42Z</time>
      </trkpt>
      <trkpt lat="43.63703" lon="3.18615">
        <ele>408.22</ele>
        <time>2017-07-27T07:50:44Z</time>
      </trkpt>
      <trkpt lat="43.63696" lon="3.18629">
        <ele>408.7</ele>
        <time>2017-07-27T07:50:55Z</time>
      </trkpt>
      <trkpt lat="43.63695" lon="3.1864">
        <ele>410.14</ele>
        <time>2017-07-27T07:51:06Z</time>
      </trkpt>
      <trkpt lat="43.63696" lon="3.18645">
        <ele>410.14</ele>
        <time>2017-07-27T07:51:10Z</time>
      </trkpt>
      <trkpt lat="43.63696" lon="3.18649">
        <ele>410.62</ele>
        <time>2017-07-27T07:51:12Z</time>
      </trkpt>
      <trkpt lat="43.63694" lon="3.18655">
        <ele>410.62</ele>
        <time>2017-07-27T07:51:16Z</time>
      </trkpt>
      <trkpt lat="43.63693" lon="3.18657">
        <ele>410.62</ele>
        <time>2017-07-27T07:51:18Z</time>
      </trkpt>
      <trkpt lat="43.63694" lon="3.18667">
        <ele>410.62</ele>
        <time>2017-07-27T07:51:25Z</time>
      </trkpt>
      <trkpt lat="43.63695" lon="3.1867">
        <ele>411.1</ele>
        <time>2017-07-27T07:51:27Z</time>
      </trkpt>
      <trkpt lat="43.63696" lon="3.18676">
        <ele>411.58</ele>
        <time>2017-07-27T07:51:32Z</time>
      </trkpt>
      <trkpt lat="43.637" lon="3.18694">
        <ele>411.1</ele>
        <time>2017-07-27T07:51:44Z</time>
      </trkpt>
      <trkpt lat="43.63699" lon="3.18696">
        <ele>410.62</ele>
        <time>2017-07-27T07:51:46Z</time>
      </trkpt>
      <trkpt lat="43.63698" lon="3.187">
        <ele>411.1</ele>
        <time>2017-07-27T07:51:49Z</time>
      </trkpt>
      <trkpt lat="43.63699" lon="3.18705">
        <ele>410.62</ele>
        <time>2017-07-27T07:51:53Z</time>
      </trkpt>
      <trkpt lat="43.63696" lon="3.18726">
        <ele>410.14</ele>
        <time>2017-07-27T07:52:06Z</time>
      </trkpt>
      <trkpt lat="43.63694" lon="3.18733">
        <ele>410.62</ele>
        <time>2017-07-27T07:52:10Z</time>
      </trkpt>
      <trkpt lat="43.63695" lon="3.18745">
        <ele>410.62</ele>
        <time>2017-07-27T07:52:18Z</time>
      </trkpt>
      <trkpt lat="43.63694" lon="3.18754">
        <ele>411.1</ele>
        <time>2017-07-27T07:52:24Z</time>
      </trkpt>
      <trkpt lat="43.63693" lon="3.1878">
        <ele>411.58</ele>
        <time>2017-07-27T07:52:42Z</time>
      </trkpt>
      <trkpt lat="43.63692" lon="3.18792">
        <ele>411.58</ele>
        <time>2017-07-27T07:52:50Z</time>
      </trkpt>
      <trkpt lat="43.63691" lon="3.18809">
        <ele>410.62</ele>
        <time>2017-07-27T07:53:00Z</time>
      </trkpt>
      <trkpt lat="43.63694" lon="3.18838">
        <ele>409.18</ele>
        <time>2017-07-27T07:53:20Z</time>
      </trkpt>
      <trkpt lat="43.63695" lon="3.18839">
        <ele>408.7</ele>
        <time>2017-07-27T07:53:21Z</time>
      </trkpt>
      <trkpt lat="43.63707" lon="3.18849">
        <ele>407.74</ele>
        <time>2017-07-27T07:53:35Z</time>
      </trkpt>
      <trkpt lat="43.63722" lon="3.18857">
        <ele>406.29</ele>
        <time>2017-07-27T07:53:51Z</time>
      </trkpt>
      <trkpt lat="43.63738" lon="3.18866">
        <ele>405.81</ele>
        <time>2017-07-27T07:54:07Z</time>
      </trkpt>
      <trkpt lat="43.63753" lon="3.18866">
        <ele>406.29</ele>
        <time>2017-07-27T07:54:23Z</time>
      </trkpt>
      <trkpt lat="43.63767" lon="3.18862">
        <ele>405.81</ele>
        <time>2017-07-27T07:54:36Z</time>
      </trkpt>
      <trkpt lat="43.63787" lon="3.18857">
        <ele>405.81</ele>
        <time>2017-07-27T07:54:53Z</time>
      </trkpt>
      <trkpt lat="43.638" lon="3.18853">
        <ele>403.89</ele>
        <time>2017-07-27T07:55:07Z</time>
      </trkpt>
      <trkpt lat="43.63813" lon="3.18847">
        <ele>402.93</ele>
        <time>2017-07-27T07:55:20Z</time>
      </trkpt>
      <trkpt lat="43.63827" lon="3.18844">
        <ele>400.05</ele>
        <time>2017-07-27T07:55:35Z</time>
      </trkpt>
      <trkpt lat="43.63827" lon="3.18843">
        <ele>400.05</ele>
        <time>2017-07-27T07:55:36Z</time>
      </trkpt>
      <trkpt lat="43.6383" lon="3.1883">
        <ele>398.12</ele>
        <time>2017-07-27T07:55:51Z</time>
      </trkpt>
      <trkpt lat="43.63827" lon="3.18817">
        <ele>396.2</ele>
        <time>2017-07-27T07:56:05Z</time>
      </trkpt>
      <trkpt lat="43.63826" lon="3.18811">
        <ele>394.76</ele>
        <time>2017-07-27T07:56:12Z</time>
      </trkpt>
      <trkpt lat="43.63826" lon="3.18809">
        <ele>394.76</ele>
        <time>2017-07-27T07:56:15Z</time>
      </trkpt>
      <trkpt lat="43.63825" lon="3.18792">
        <ele>392.36</ele>
        <time>2017-07-27T07:56:29Z</time>
      </trkpt>
      <trkpt lat="43.63821" lon="3.1878">
        <ele>390.91</ele>
        <time>2017-07-27T07:56:42Z</time>
      </trkpt>
      <trkpt lat="43.63819" lon="3.18778">
        <ele>389.95</ele>
        <time>2017-07-27T07:56:45Z</time>
      </trkpt>
      <trkpt lat="43.63816" lon="3.18768">
        <ele>388.99</ele>
        <time>2017-07-27T07:56:53Z</time>
      </trkpt>
      <trkpt lat="43.63817" lon="3.18759">
        <ele>388.51</ele>
        <time>2017-07-27T07:56:58Z</time>
      </trkpt>
      <trkpt lat="43.63826" lon="3.18749">
        <ele>389.47</ele>
        <time>2017-07-27T07:57:10Z</time>
      </trkpt>
      <trkpt lat="43.6384" lon="3.18735">
        <ele>388.99</ele>
        <time>2017-07-27T07:57:28Z</time>
      </trkpt>
      <trkpt lat="43.63849" lon="3.18737">
        <ele>386.11</ele>
        <time>2017-07-27T07:57:43Z</time>
      </trkpt>
      <trkpt lat="43.63865" lon="3.18734">
        <ele>384.18</ele>
        <time>2017-07-27T07:58:02Z</time>
      </trkpt>
      <trkpt lat="43.63869" lon="3.18718">
        <ele>383.22</ele>
        <time>2017-07-27T07:58:17Z</time>
      </trkpt>
      <trkpt lat="43.63877" lon="3.18697">
        <ele>384.66</ele>
        <time>2017-07-27T07:58:33Z</time>
      </trkpt>
      <trkpt lat="43.63882" lon="3.18685">
        <ele>386.59</ele>
        <time>2017-07-27T07:58:45Z</time>
      </trkpt>
      <trkpt lat="43.63891" lon="3.18676">
        <ele>386.11</ele>
        <time>2017-07-27T07:58:58Z</time>
      </trkpt>
      <trkpt lat="43.639" lon="3.18666">
        <ele>384.66</ele>
        <time>2017-07-27T07:59:10Z</time>
      </trkpt>
      <trkpt lat="43.639" lon="3.18665">
        <ele>384.66</ele>
        <time>2017-07-27T07:59:11Z</time>
      </trkpt>
      <trkpt lat="43.63904" lon="3.18664">
        <ele>383.7</ele>
        <time>2017-07-27T07:59:15Z</time>
      </trkpt>
      <trkpt lat="43.63914" lon="3.1866">
        <ele>382.26</ele>
        <time>2017-07-27T07:59:27Z</time>
      </trkpt>
      <trkpt lat="43.63917" lon="3.18658">
        <ele>382.26</ele>
        <time>2017-07-27T07:59:31Z</time>
      </trkpt>
      <trkpt lat="43.63933" lon="3.1865">
        <ele>381.78</ele>
        <time>2017-07-27T07:59:46Z</time>
      </trkpt>
      <trkpt lat="43.63935" lon="3.1865">
        <ele>381.78</ele>
        <time>2017-07-27T07:59:48Z</time>
      </trkpt>
      <trkpt lat="43.63938" lon="3.18649">
        <ele>381.3</ele>
        <time>2017-07-27T07:59:51Z</time>
      </trkpt>
      <trkpt lat="43.63945" lon="3.18646">
        <ele>381.78</ele>
        <time>2017-07-27T07:59:58Z</time>
      </trkpt>
      <trkpt lat="43.63948" lon="3.18643">
        <ele>381.3</ele>
        <time>2017-07-27T08:00:02Z</time>
      </trkpt>
      <trkpt lat="43.63956" lon="3.18631">
        <ele>382.26</ele>
        <time>2017-07-27T08:00:12Z</time>
      </trkpt>
      <trkpt lat="43.63958" lon="3.18625">
        <ele>381.78</ele>
        <time>2017-07-27T08:00:17Z</time>
      </trkpt>
      <trkpt lat="43.63971" lon="3.18618">
        <ele>382.26</ele>
        <time>2017-07-27T08:00:32Z</time>
      </trkpt>
      <trkpt lat="43.63984" lon="3.18615">
        <ele>380.34</ele>
        <time>2017-07-27T08:00:47Z</time>
      </trkpt>
      <trkpt lat="43.63988" lon="3.18617">
        <ele>379.86</ele>
        <time>2017-07-27T08:00:51Z</time>
      </trkpt>
      <trkpt lat="43.64002" lon="3.18617">
        <ele>379.86</ele>
        <time>2017-07-27T08:01:07Z</time>
      </trkpt>
      <trkpt lat="43.64012" lon="3.18615">
        <ele>379.86</ele>
        <time>2017-07-27T08:01:19Z</time>
      </trkpt>
      <trkpt lat="43.64013" lon="3.18607">
        <ele>380.82</ele>
        <time>2017-07-27T08:01:29Z</time>
      </trkpt>
      <trkpt lat="43.64013" lon="3.18606">
        <ele>380.34</ele>
        <time>2017-07-27T08:01:55Z</time>
      </trkpt>
      <trkpt lat="43.64008" lon="3.18608">
        <ele>379.86</ele>
        <time>2017-07-27T08:02:33Z</time>
      </trkpt>
      <trkpt lat="43.6401" lon="3.18602">
        <ele>380.82</ele>
        <time>2017-07-27T08:03:09Z</time>
      </trkpt>
      <trkpt lat="43.64013" lon="3.18593">
        <ele>381.3</ele>
        <time>2017-07-27T08:03:15Z</time>
      </trkpt>
      <trkpt lat="43.64015" lon="3.1859">
        <ele>381.78</ele>
        <time>2017-07-27T08:03:18Z</time>
      </trkpt>
      <trkpt lat="43.64014" lon="3.18587">
        <ele>381.78</ele>
        <time>2017-07-27T08:03:20Z</time>
      </trkpt>
      <trkpt lat="43.64017" lon="3.18581">
        <ele>381.78</ele>
        <time>2017-07-27T08:03:25Z</time>
      </trkpt>
      <trkpt lat="43.64017" lon="3.18574">
        <ele>381.78</ele>
        <time>2017-07-27T08:03:31Z</time>
      </trkpt>
      <trkpt lat="43.64023" lon="3.18558">
        <ele>383.22</ele>
        <time>2017-07-27T08:03:44Z</time>
      </trkpt>
      <trkpt lat="43.64028" lon="3.1855">
        <ele>383.22</ele>
        <time>2017-07-27T08:03:51Z</time>
      </trkpt>
      <trkpt lat="43.64038" lon="3.18535">
        <ele>384.66</ele>
        <time>2017-07-27T08:04:05Z</time>
      </trkpt>
      <trkpt lat="43.64045" lon="3.18521">
        <ele>386.59</ele>
        <time>2017-07-27T08:04:17Z</time>
      </trkpt>
      <trkpt lat="43.64046" lon="3.18518">
        <ele>386.59</ele>
        <time>2017-07-27T08:04:20Z</time>
      </trkpt>
      <trkpt lat="43.64053" lon="3.185">
        <ele>389.47</ele>
        <time>2017-07-27T08:04:36Z</time>
      </trkpt>
      <trkpt lat="43.64061" lon="3.18485">
        <ele>390.91</ele>
        <time>2017-07-27T08:04:50Z</time>
      </trkpt>
      <trkpt lat="43.6407" lon="3.18469">
        <ele>392.84</ele>
        <time>2017-07-27T08:05:06Z</time>
      </trkpt>
      <trkpt lat="43.64076" lon="3.18455">
        <ele>393.8</ele>
        <time>2017-07-27T08:05:18Z</time>
      </trkpt>
      <trkpt lat="43.64084" lon="3.18437">
        <ele>394.76</ele>
        <time>2017-07-27T08:05:33Z</time>
      </trkpt>
      <trkpt lat="43.64091" lon="3.18428">
        <ele>395.72</ele>
        <time>2017-07-27T08:05:43Z</time>
      </trkpt>
      <trkpt lat="43.64101" lon="3.18419">
        <ele>397.64</ele>
        <time>2017-07-27T08:05:57Z</time>
      </trkpt>
      <trkpt lat="43.64102" lon="3.18417">
        <ele>397.64</ele>
        <time>2017-07-27T08:05:58Z</time>
      </trkpt>
      <trkpt lat="43.6411" lon="3.18399">
        <ele>400.05</ele>
        <time>2017-07-27T08:06:14Z</time>
      </trkpt>
      <trkpt lat="43.64113" lon="3.18384">
        <ele>401.49</ele>
        <time>2017-07-27T08:06:28Z</time>
      </trkpt>
      <trkpt lat="43.64114" lon="3.18372">
        <ele>402.93</ele>
        <time>2017-07-27T08:06:41Z</time>
      </trkpt>
      <trkpt lat="43.64104" lon="3.18363">
        <ele>402.93</ele>
        <time>2017-07-27T08:06:55Z</time>
      </trkpt>
      <trkpt lat="43.641" lon="3.18358">
        <ele>402.45</ele>
        <time>2017-07-27T08:07:09Z</time>
      </trkpt>
      <trkpt lat="43.64091" lon="3.18362">
        <ele>403.41</ele>
        <time>2017-07-27T08:07:37Z</time>
      </trkpt>
      <trkpt lat="43.64089" lon="3.18363">
        <ele>403.41</ele>
        <time>2017-07-27T08:07:39Z</time>
      </trkpt>
      <trkpt lat="43.64083" lon="3.18362">
        <ele>404.37</ele>
        <time>2017-07-27T08:07:47Z</time>
      </trkpt>
      <trkpt lat="43.64082" lon="3.18361">
        <ele>404.85</ele>
        <time>2017-07-27T08:08:00Z</time>
      </trkpt>
      <trkpt lat="43.64078" lon="3.18361">
        <ele>404.85</ele>
        <time>2017-07-27T08:08:32Z</time>
      </trkpt>
      <trkpt lat="43.64072" lon="3.18365">
        <ele>404.85</ele>
        <time>2017-07-27T08:08:41Z</time>
      </trkpt>
      <trkpt lat="43.64068" lon="3.18364">
        <ele>405.33</ele>
        <time>2017-07-27T08:08:46Z</time>
      </trkpt>
      <trkpt lat="43.64062" lon="3.18365">
        <ele>404.85</ele>
        <time>2017-07-27T08:08:58Z</time>
      </trkpt>
      <trkpt lat="43.64051" lon="3.18365">
        <ele>404.85</ele>
        <time>2017-07-27T08:09:14Z</time>
      </trkpt>
      <trkpt lat="43.64051" lon="3.18364">
        <ele>404.85</ele>
        <time>2017-07-27T08:09:33Z</time>
      </trkpt>
      <trkpt lat="43.64047" lon="3.18365">
        <ele>405.33</ele>
        <time>2017-07-27T08:09:39Z</time>
      </trkpt>
      <trkpt lat="43.64042" lon="3.18365">
        <ele>405.33</ele>
        <time>2017-07-27T08:09:44Z</time>
      </trkpt>
      <trkpt lat="43.64036" lon="3.18363">
        <ele>405.33</ele>
        <time>2017-07-27T08:09:51Z</time>
      </trkpt>
      <trkpt lat="43.64033" lon="3.18362">
        <ele>405.33</ele>
        <time>2017-07-27T08:09:54Z</time>
      </trkpt>
      <trkpt lat="43.64029" lon="3.1836">
        <ele>405.81</ele>
        <time>2017-07-27T08:09:57Z</time>
      </trkpt>
      <trkpt lat="43.64018" lon="3.18355">
        <ele>406.29</ele>
        <time>2017-07-27T08:10:08Z</time>
      </trkpt>
      <trkpt lat="43.64015" lon="3.18354">
        <ele>405.81</ele>
        <time>2017-07-27T08:10:11Z</time>
      </trkpt>
      <trkpt lat="43.64009" lon="3.18353">
        <ele>405.81</ele>
        <time>2017-07-27T08:10:17Z</time>
      </trkpt>
      <trkpt lat="43.64003" lon="3.18353">
        <ele>405.81</ele>
        <time>2017-07-27T08:10:23Z</time>
      </trkpt>
      <trkpt lat="43.63996" lon="3.18353">
        <ele>405.33</ele>
        <time>2017-07-27T08:10:30Z</time>
      </trkpt>
      <trkpt lat="43.63992" lon="3.18352">
        <ele>405.81</ele>
        <time>2017-07-27T08:10:34Z</time>
      </trkpt>
      <trkpt lat="43.63988" lon="3.18351">
        <ele>405.81</ele>
        <time>2017-07-27T08:10:37Z</time>
      </trkpt>
      <trkpt lat="43.63974" lon="3.18341">
        <ele>404.85</ele>
        <time>2017-07-27T08:10:52Z</time>
      </trkpt>
      <trkpt lat="43.63959" lon="3.1833">
        <ele>405.33</ele>
        <time>2017-07-27T08:11:07Z</time>
      </trkpt>
      <trkpt lat="43.63948" lon="3.18314">
        <ele>405.81</ele>
        <time>2017-07-27T08:11:22Z</time>
      </trkpt>
      <trkpt lat="43.6395" lon="3.18301">
        <ele>404.85</ele>
        <time>2017-07-27T08:11:35Z</time>
      </trkpt>
      <trkpt lat="43.6395" lon="3.183">
        <ele>404.85</ele>
        <time>2017-07-27T08:11:36Z</time>
      </trkpt>
      <trkpt lat="43.63958" lon="3.18289">
        <ele>404.37</ele>
        <time>2017-07-27T08:11:51Z</time>
      </trkpt>
      <trkpt lat="43.63963" lon="3.18285">
        <ele>403.41</ele>
        <time>2017-07-27T08:12:04Z</time>
      </trkpt>
      <trkpt lat="43.63967" lon="3.18285">
        <ele>403.41</ele>
        <time>2017-07-27T08:12:26Z</time>
      </trkpt>
      <trkpt lat="43.63969" lon="3.18284">
        <ele>403.41</ele>
        <time>2017-07-27T08:12:28Z</time>
      </trkpt>
      <trkpt lat="43.6398" lon="3.18272">
        <ele>401.97</ele>
        <time>2017-07-27T08:12:40Z</time>
      </trkpt>
      <trkpt lat="43.63981" lon="3.18271">
        <ele>401.97</ele>
        <time>2017-07-27T08:12:41Z</time>
      </trkpt>
      <trkpt lat="43.63992" lon="3.18255">
        <ele>399.57</ele>
        <time>2017-07-27T08:12:55Z</time>
      </trkpt>
      <trkpt lat="43.63997" lon="3.18244">
        <ele>398.12</ele>
        <time>2017-07-27T08:13:10Z</time>
      </trkpt>
      <trkpt lat="43.64008" lon="3.1823">
        <ele>395.72</ele>
        <time>2017-07-27T08:13:24Z</time>
      </trkpt>
      <trkpt lat="43.64018" lon="3.18217">
        <ele>393.8</ele>
        <time>2017-07-27T08:13:38Z</time>
      </trkpt>
      <trkpt lat="43.64027" lon="3.18209">
        <ele>390.43</ele>
        <time>2017-07-27T08:13:51Z</time>
      </trkpt>
      <trkpt lat="43.64037" lon="3.18199">
        <ele>388.03</ele>
        <time>2017-07-27T08:14:05Z</time>
      </trkpt>
      <trkpt lat="43.64048" lon="3.18185">
        <ele>386.59</ele>
        <time>2017-07-27T08:14:20Z</time>
      </trkpt>
      <trkpt lat="43.64052" lon="3.18175">
        <ele>384.66</ele>
        <time>2017-07-27T08:14:33Z</time>
      </trkpt>
      <trkpt lat="43.64058" lon="3.18163">
        <ele>383.7</ele>
        <time>2017-07-27T08:14:46Z</time>
      </trkpt>
      <trkpt lat="43.64062" lon="3.18153">
        <ele>380.34</ele>
        <time>2017-07-27T08:14:59Z</time>
      </trkpt>
      <trkpt lat="43.64063" lon="3.18145">
        <ele>379.86</ele>
        <time>2017-07-27T08:15:05Z</time>
      </trkpt>
      <trkpt lat="43.64067" lon="3.18132">
        <ele>378.42</ele>
        <time>2017-07-27T08:15:14Z</time>
      </trkpt>
      <trkpt lat="43.64071" lon="3.18124">
        <ele>376.01</ele>
        <time>2017-07-27T08:15:25Z</time>
      </trkpt>
      <trkpt lat="43.64076" lon="3.18122">
        <ele>374.09</ele>
        <time>2017-07-27T08:15:35Z</time>
      </trkpt>
      <trkpt lat="43.64085" lon="3.18112">
        <ele>371.21</ele>
        <time>2017-07-27T08:15:52Z</time>
      </trkpt>
      <trkpt lat="43.64085" lon="3.18111">
        <ele>370.73</ele>
        <time>2017-07-27T08:15:53Z</time>
      </trkpt>
      <trkpt lat="43.64091" lon="3.18096">
        <ele>368.32</ele>
        <time>2017-07-27T08:16:08Z</time>
      </trkpt>
      <trkpt lat="43.64099" lon="3.18084">
        <ele>366.88</ele>
        <time>2017-07-27T08:16:25Z</time>
      </trkpt>
      <trkpt lat="43.64111" lon="3.18073">
        <ele>364.48</ele>
        <time>2017-07-27T08:16:41Z</time>
      </trkpt>
      <trkpt lat="43.64121" lon="3.18059">
        <ele>362.55</ele>
        <time>2017-07-27T08:16:57Z</time>
      </trkpt>
      <trkpt lat="43.64125" lon="3.18052">
        <ele>360.15</ele>
        <time>2017-07-27T08:17:08Z</time>
      </trkpt>
      <trkpt lat="43.64126" lon="3.18043">
        <ele>357.27</ele>
        <time>2017-07-27T08:17:20Z</time>
      </trkpt>
      <trkpt lat="43.64134" lon="3.18035">
        <ele>355.83</ele>
        <time>2017-07-27T08:17:34Z</time>
      </trkpt>
      <trkpt lat="43.6414" lon="3.18024">
        <ele>353.42</ele>
        <time>2017-07-27T08:17:46Z</time>
      </trkpt>
      <trkpt lat="43.64144" lon="3.18015">
        <ele>351.98</ele>
        <time>2017-07-27T08:17:57Z</time>
      </trkpt>
      <trkpt lat="43.64148" lon="3.18005">
        <ele>351.02</ele>
        <time>2017-07-27T08:18:11Z</time>
      </trkpt>
      <trkpt lat="43.64147" lon="3.17989">
        <ele>349.58</ele>
        <time>2017-07-27T08:18:26Z</time>
      </trkpt>
      <trkpt lat="43.64151" lon="3.17979">
        <ele>347.17</ele>
        <time>2017-07-27T08:18:43Z</time>
      </trkpt>
      <trkpt lat="43.64163" lon="3.17971">
        <ele>344.29</ele>
        <time>2017-07-27T08:18:59Z</time>
      </trkpt>
      <trkpt lat="43.64176" lon="3.17967">
        <ele>341.41</ele>
        <time>2017-07-27T08:19:18Z</time>
      </trkpt>
      <trkpt lat="43.64189" lon="3.17961">
        <ele>339</ele>
        <time>2017-07-27T08:19:35Z</time>
      </trkpt>
      <trkpt lat="43.64201" lon="3.17958">
        <ele>336.12</ele>
        <time>2017-07-27T08:19:51Z</time>
      </trkpt>
      <trkpt lat="43.64214" lon="3.17948">
        <ele>334.68</ele>
        <time>2017-07-27T08:20:08Z</time>
      </trkpt>
      <trkpt lat="43.64224" lon="3.17929">
        <ele>332.75</ele>
        <time>2017-07-27T08:20:28Z</time>
      </trkpt>
      <trkpt lat="43.64232" lon="3.17911">
        <ele>331.31</ele>
        <time>2017-07-27T08:20:45Z</time>
      </trkpt>
      <trkpt lat="43.64238" lon="3.17892">
        <ele>330.83</ele>
        <time>2017-07-27T08:21:00Z</time>
      </trkpt>
      <trkpt lat="43.64241" lon="3.17877">
        <ele>330.35</ele>
        <time>2017-07-27T08:21:13Z</time>
      </trkpt>
      <trkpt lat="43.64246" lon="3.17851">
        <ele>331.31</ele>
        <time>2017-07-27T08:21:31Z</time>
      </trkpt>
      <trkpt lat="43.64251" lon="3.17829">
        <ele>328.91</ele>
        <time>2017-07-27T08:21:48Z</time>
      </trkpt>
      <trkpt lat="43.64254" lon="3.17817">
        <ele>326.5</ele>
        <time>2017-07-27T08:22:06Z</time>
      </trkpt>
      <trkpt lat="43.64262" lon="3.17803">
        <ele>323.14</ele>
        <time>2017-07-27T08:22:27Z</time>
      </trkpt>
      <trkpt lat="43.6427" lon="3.17798">
        <ele>321.7</ele>
        <time>2017-07-27T08:22:45Z</time>
      </trkpt>
      <trkpt lat="43.64271" lon="3.17792">
        <ele>320.74</ele>
        <time>2017-07-27T08:23:07Z</time>
      </trkpt>
      <trkpt lat="43.64275" lon="3.17781">
        <ele>318.81</ele>
        <time>2017-07-27T08:23:25Z</time>
      </trkpt>
      <trkpt lat="43.64277" lon="3.17773">
        <ele>317.37</ele>
        <time>2017-07-27T08:23:40Z</time>
      </trkpt>
      <trkpt lat="43.64285" lon="3.17766">
        <ele>314.49</ele>
        <time>2017-07-27T08:23:57Z</time>
      </trkpt>
      <trkpt lat="43.64295" lon="3.17762">
        <ele>311.6</ele>
        <time>2017-07-27T08:24:15Z</time>
      </trkpt>
      <trkpt lat="43.64302" lon="3.17777">
        <ele>310.16</ele>
        <time>2017-07-27T08:24:28Z</time>
      </trkpt>
      <trkpt lat="43.64309" lon="3.17792">
        <ele>308.72</ele>
        <time>2017-07-27T08:24:42Z</time>
      </trkpt>
      <trkpt lat="43.64315" lon="3.17803">
        <ele>307.76</ele>
        <time>2017-07-27T08:24:55Z</time>
      </trkpt>
      <trkpt lat="43.64324" lon="3.17818">
        <ele>305.36</ele>
        <time>2017-07-27T08:25:08Z</time>
      </trkpt>
      <trkpt lat="43.64331" lon="3.17833">
        <ele>303.91</ele>
        <time>2017-07-27T08:25:23Z</time>
      </trkpt>
      <trkpt lat="43.6434" lon="3.17837">
        <ele>301.51</ele>
        <time>2017-07-27T08:25:38Z</time>
      </trkpt>
      <trkpt lat="43.64353" lon="3.17839">
        <ele>299.11</ele>
        <time>2017-07-27T08:25:54Z</time>
      </trkpt>
      <trkpt lat="43.64363" lon="3.17845">
        <ele>297.67</ele>
        <time>2017-07-27T08:26:09Z</time>
      </trkpt>
      <trkpt lat="43.64372" lon="3.17854">
        <ele>295.26</ele>
        <time>2017-07-27T08:26:25Z</time>
      </trkpt>
      <trkpt lat="43.64379" lon="3.17868">
        <ele>291.9</ele>
        <time>2017-07-27T08:26:43Z</time>
      </trkpt>
      <trkpt lat="43.64387" lon="3.17876">
        <ele>291.42</ele>
        <time>2017-07-27T08:26:53Z</time>
      </trkpt>
      <trkpt lat="43.64388" lon="3.17874">
        <ele>290.94</ele>
        <time>2017-07-27T08:26:55Z</time>
      </trkpt>
      <trkpt lat="43.6439" lon="3.17874">
        <ele>290.94</ele>
        <time>2017-07-27T08:26:57Z</time>
      </trkpt>
      <trkpt lat="43.64401" lon="3.17872">
        <ele>290.94</ele>
        <time>2017-07-27T08:27:09Z</time>
      </trkpt>
      <trkpt lat="43.64407" lon="3.17872">
        <ele>289.49</ele>
        <time>2017-07-27T08:27:24Z</time>
      </trkpt>
      <trkpt lat="43.64405" lon="3.17874">
        <ele>289.97</ele>
        <time>2017-07-27T08:27:40Z</time>
      </trkpt>
      <trkpt lat="43.6441" lon="3.17876">
        <ele>289.97</ele>
        <time>2017-07-27T08:27:58Z</time>
      </trkpt>
      <trkpt lat="43.64407" lon="3.17872">
        <ele>289.49</ele>
        <time>2017-07-27T08:28:13Z</time>
      </trkpt>
      <trkpt lat="43.64406" lon="3.17858">
        <ele>288.53</ele>
        <time>2017-07-27T08:28:29Z</time>
      </trkpt>
      <trkpt lat="43.64406" lon="3.17855">
        <ele>288.53</ele>
        <time>2017-07-27T08:28:32Z</time>
      </trkpt>
      <trkpt lat="43.64407" lon="3.17843">
        <ele>288.05</ele>
        <time>2017-07-27T08:28:42Z</time>
      </trkpt>
      <trkpt lat="43.6441" lon="3.17831">
        <ele>288.05</ele>
        <time>2017-07-27T08:28:51Z</time>
      </trkpt>
      <trkpt lat="43.64418" lon="3.17812">
        <ele>287.09</ele>
        <time>2017-07-27T08:29:06Z</time>
      </trkpt>
      <trkpt lat="43.64425" lon="3.1779">
        <ele>286.13</ele>
        <time>2017-07-27T08:29:22Z</time>
      </trkpt>
      <trkpt lat="43.6443" lon="3.17768">
        <ele>285.65</ele>
        <time>2017-07-27T08:29:41Z</time>
      </trkpt>
      <trkpt lat="43.64435" lon="3.17759">
        <ele>284.69</ele>
        <time>2017-07-27T08:29:57Z</time>
      </trkpt>
      <trkpt lat="43.64439" lon="3.17749">
        <ele>284.21</ele>
        <time>2017-07-27T08:30:10Z</time>
      </trkpt>
      <trkpt lat="43.64443" lon="3.17733">
        <ele>283.73</ele>
        <time>2017-07-27T08:30:23Z</time>
      </trkpt>
      <trkpt lat="43.64448" lon="3.17719">
        <ele>282.28</ele>
        <time>2017-07-27T08:30:37Z</time>
      </trkpt>
      <trkpt lat="43.64453" lon="3.17703">
        <ele>281.8</ele>
        <time>2017-07-27T08:30:49Z</time>
      </trkpt>
      <trkpt lat="43.64461" lon="3.17684">
        <ele>281.32</ele>
        <time>2017-07-27T08:31:04Z</time>
      </trkpt>
      <trkpt lat="43.64463" lon="3.17682">
        <ele>280.84</ele>
        <time>2017-07-27T08:31:06Z</time>
      </trkpt>
      <trkpt lat="43.64466" lon="3.17675">
        <ele>279.4</ele>
        <time>2017-07-27T08:31:11Z</time>
      </trkpt>
      <trkpt lat="43.64458" lon="3.17663">
        <ele>281.32</ele>
        <time>2017-07-27T08:31:26Z</time>
      </trkpt>
      <trkpt lat="43.6445" lon="3.17649">
        <ele>282.77</ele>
        <time>2017-07-27T08:31:41Z</time>
      </trkpt>
      <trkpt lat="43.64458" lon="3.17637">
        <ele>280.84</ele>
        <time>2017-07-27T08:31:57Z</time>
      </trkpt>
      <trkpt lat="43.64467" lon="3.17635">
        <ele>279.4</ele>
        <time>2017-07-27T08:32:09Z</time>
      </trkpt>
      <trkpt lat="43.64485" lon="3.1763">
        <ele>277.48</ele>
        <time>2017-07-27T08:32:25Z</time>
      </trkpt>
      <trkpt lat="43.64491" lon="3.17628">
        <ele>277.48</ele>
        <time>2017-07-27T08:32:30Z</time>
      </trkpt>
      <trkpt lat="43.64495" lon="3.17626">
        <ele>277.48</ele>
        <time>2017-07-27T08:32:33Z</time>
      </trkpt>
      <trkpt lat="43.64496" lon="3.17623">
        <ele>277.48</ele>
        <time>2017-07-27T08:32:35Z</time>
      </trkpt>
      <trkpt lat="43.64503" lon="3.17611">
        <ele>277</ele>
        <time>2017-07-27T08:32:47Z</time>
      </trkpt>
      <trkpt lat="43.64508" lon="3.17601">
        <ele>276.52</ele>
        <time>2017-07-27T08:32:57Z</time>
      </trkpt>
      <trkpt lat="43.64523" lon="3.176">
        <ele>276.04</ele>
        <time>2017-07-27T08:33:14Z</time>
      </trkpt>
      <trkpt lat="43.64526" lon="3.1758">
        <ele>273.63</ele>
        <time>2017-07-27T08:33:31Z</time>
      </trkpt>
      <trkpt lat="43.64536" lon="3.17573">
        <ele>271.71</ele>
        <time>2017-07-27T08:33:45Z</time>
      </trkpt>
      <trkpt lat="43.64541" lon="3.17574">
        <ele>271.71</ele>
        <time>2017-07-27T08:33:50Z</time>
      </trkpt>
      <trkpt lat="43.64552" lon="3.17577">
        <ele>269.79</ele>
        <time>2017-07-27T08:34:01Z</time>
      </trkpt>
      <trkpt lat="43.64558" lon="3.17583">
        <ele>268.35</ele>
        <time>2017-07-27T08:34:08Z</time>
      </trkpt>
      <trkpt lat="43.64559" lon="3.17587">
        <ele>268.83</ele>
        <time>2017-07-27T08:34:11Z</time>
      </trkpt>
      <trkpt lat="43.64563" lon="3.1759">
        <ele>267.86</ele>
        <time>2017-07-27T08:34:16Z</time>
      </trkpt>
      <trkpt lat="43.64568" lon="3.17577">
        <ele>266.9</ele>
        <time>2017-07-27T08:34:24Z</time>
      </trkpt>
      <trkpt lat="43.64573" lon="3.17551">
        <ele>264.98</ele>
        <time>2017-07-27T08:34:43Z</time>
      </trkpt>
      <trkpt lat="43.64575" lon="3.17545">
        <ele>264.5</ele>
        <time>2017-07-27T08:34:59Z</time>
      </trkpt>
      <trkpt lat="43.64581" lon="3.1754">
        <ele>261.14</ele>
        <time>2017-07-27T08:35:09Z</time>
      </trkpt>
      <trkpt lat="43.64585" lon="3.17526">
        <ele>257.77</ele>
        <time>2017-07-27T08:35:23Z</time>
      </trkpt>
      <trkpt lat="43.64585" lon="3.17525">
        <ele>257.77</ele>
        <time>2017-07-27T08:35:24Z</time>
      </trkpt>
      <trkpt lat="43.64589" lon="3.17508">
        <ele>254.89</ele>
        <time>2017-07-27T08:35:39Z</time>
      </trkpt>
      <trkpt lat="43.64585" lon="3.17493">
        <ele>252.48</ele>
        <time>2017-07-27T08:35:53Z</time>
      </trkpt>
      <trkpt lat="43.64584" lon="3.17476">
        <ele>249.6</ele>
        <time>2017-07-27T08:36:08Z</time>
      </trkpt>
      <trkpt lat="43.64578" lon="3.17466">
        <ele>247.2</ele>
        <time>2017-07-27T08:36:24Z</time>
      </trkpt>
      <trkpt lat="43.64579" lon="3.17464">
        <ele>246.23</ele>
        <time>2017-07-27T08:36:28Z</time>
      </trkpt>
      <trkpt lat="43.64585" lon="3.1745">
        <ele>245.27</ele>
        <time>2017-07-27T08:36:41Z</time>
      </trkpt>
      <trkpt lat="43.64593" lon="3.17437">
        <ele>242.87</ele>
        <time>2017-07-27T08:36:56Z</time>
      </trkpt>
      <trkpt lat="43.64606" lon="3.17424">
        <ele>239.99</ele>
        <time>2017-07-27T08:37:15Z</time>
      </trkpt>
      <trkpt lat="43.64615" lon="3.17406">
        <ele>239.02</ele>
        <time>2017-07-27T08:37:31Z</time>
      </trkpt>
      <trkpt lat="43.64625" lon="3.17396">
        <ele>237.1</ele>
        <time>2017-07-27T08:37:45Z</time>
      </trkpt>
      <trkpt lat="43.6464" lon="3.17385">
        <ele>234.7</ele>
        <time>2017-07-27T08:38:03Z</time>
      </trkpt>
      <trkpt lat="43.64648" lon="3.17369">
        <ele>233.26</ele>
        <time>2017-07-27T08:38:21Z</time>
      </trkpt>
      <trkpt lat="43.64655" lon="3.17355">
        <ele>232.78</ele>
        <time>2017-07-27T08:38:37Z</time>
      </trkpt>
      <trkpt lat="43.64656" lon="3.17353">
        <ele>232.3</ele>
        <time>2017-07-27T08:39:10Z</time>
      </trkpt>
      <trkpt lat="43.64659" lon="3.17354">
        <ele>232.3</ele>
        <time>2017-07-27T08:39:23Z</time>
      </trkpt>
      <trkpt lat="43.6466" lon="3.17351">
        <ele>232.3</ele>
        <time>2017-07-27T08:39:49Z</time>
      </trkpt>
      <trkpt lat="43.64661" lon="3.17348">
        <ele>231.81</ele>
        <time>2017-07-27T08:40:19Z</time>
      </trkpt>
      <trkpt lat="43.64661" lon="3.17348">
        <ele>231.81</ele>
        <time>2017-07-27T08:40:54Z</time>
      </trkpt>
      <trkpt lat="43.64659" lon="3.1735">
        <ele>232.3</ele>
        <time>2017-07-27T08:41:21Z</time>
      </trkpt>
      <trkpt lat="43.64663" lon="3.17345">
        <ele>232.3</ele>
        <time>2017-07-27T08:41:42Z</time>
      </trkpt>
      <trkpt lat="43.64662" lon="3.17349">
        <ele>232.78</ele>
        <time>2017-07-27T08:41:58Z</time>
      </trkpt>
      <trkpt lat="43.64661" lon="3.17348">
        <ele>232.3</ele>
        <time>2017-07-27T08:42:28Z</time>
      </trkpt>
      <trkpt lat="43.64663" lon="3.1735">
        <ele>232.3</ele>
        <time>2017-07-27T08:42:52Z</time>
      </trkpt>
      <trkpt lat="43.64661" lon="3.17351">
        <ele>232.3</ele>
        <time>2017-07-27T08:43:18Z</time>
      </trkpt>
      <trkpt lat="43.64671" lon="3.17349">
        <ele>231.81</ele>
        <time>2017-07-27T08:43:42Z</time>
      </trkpt>
      <trkpt lat="43.64674" lon="3.17345">
        <ele>232.3</ele>
        <time>2017-07-27T08:43:53Z</time>
      </trkpt>
      <trkpt lat="43.64676" lon="3.17344">
        <ele>231.81</ele>
        <time>2017-07-27T08:43:55Z</time>
      </trkpt>
      <trkpt lat="43.6468" lon="3.17342">
        <ele>232.78</ele>
        <time>2017-07-27T08:43:58Z</time>
      </trkpt>
      <trkpt lat="43.64684" lon="3.17339">
        <ele>232.78</ele>
        <time>2017-07-27T08:44:02Z</time>
      </trkpt>
      <trkpt lat="43.64693" lon="3.17329">
        <ele>232.3</ele>
        <time>2017-07-27T08:44:14Z</time>
      </trkpt>
      <trkpt lat="43.64694" lon="3.17328">
        <ele>232.3</ele>
        <time>2017-07-27T08:44:15Z</time>
      </trkpt>
      <trkpt lat="43.647" lon="3.17314">
        <ele>233.26</ele>
        <time>2017-07-27T08:44:27Z</time>
      </trkpt>
      <trkpt lat="43.64705" lon="3.17297">
        <ele>233.26</ele>
        <time>2017-07-27T08:44:39Z</time>
      </trkpt>
      <trkpt lat="43.64709" lon="3.17289">
        <ele>233.26</ele>
        <time>2017-07-27T08:44:45Z</time>
      </trkpt>
      <trkpt lat="43.6471" lon="3.17287">
        <ele>233.74</ele>
        <time>2017-07-27T08:44:47Z</time>
      </trkpt>
      <trkpt lat="43.64715" lon="3.17284">
        <ele>233.26</ele>
        <time>2017-07-27T08:44:51Z</time>
      </trkpt>
      <trkpt lat="43.64724" lon="3.17281">
        <ele>232.78</ele>
        <time>2017-07-27T08:44:58Z</time>
      </trkpt>
      <trkpt lat="43.6473" lon="3.17279">
        <ele>232.78</ele>
        <time>2017-07-27T08:45:04Z</time>
      </trkpt>
      <trkpt lat="43.64736" lon="3.17277">
        <ele>232.78</ele>
        <time>2017-07-27T08:45:09Z</time>
      </trkpt>
      <trkpt lat="43.64753" lon="3.17268">
        <ele>232.78</ele>
        <time>2017-07-27T08:45:24Z</time>
      </trkpt>
      <trkpt lat="43.64756" lon="3.17267">
        <ele>232.3</ele>
        <time>2017-07-27T08:45:27Z</time>
      </trkpt>
      <trkpt lat="43.64766" lon="3.17257">
        <ele>232.3</ele>
        <time>2017-07-27T08:45:37Z</time>
      </trkpt>
      <trkpt lat="43.64771" lon="3.17253">
        <ele>232.3</ele>
        <time>2017-07-27T08:45:42Z</time>
      </trkpt>
      <trkpt lat="43.64787" lon="3.1724">
        <ele>231.81</ele>
        <time>2017-07-27T08:45:57Z</time>
      </trkpt>
      <trkpt lat="43.64793" lon="3.17235">
        <ele>231.33</ele>
        <time>2017-07-27T08:46:03Z</time>
      </trkpt>
      <trkpt lat="43.64799" lon="3.17227">
        <ele>231.81</ele>
        <time>2017-07-27T08:46:10Z</time>
      </trkpt>
      <trkpt lat="43.64811" lon="3.17213">
        <ele>230.85</ele>
        <time>2017-07-27T08:46:24Z</time>
      </trkpt>
      <trkpt lat="43.64821" lon="3.17192">
        <ele>229.41</ele>
        <time>2017-07-27T08:46:41Z</time>
      </trkpt>
      <trkpt lat="43.64829" lon="3.17162">
        <ele>227.97</ele>
        <time>2017-07-27T08:47:00Z</time>
      </trkpt>
      <trkpt lat="43.64848" lon="3.17145">
        <ele>226.05</ele>
        <time>2017-07-27T08:47:18Z</time>
      </trkpt>
      <trkpt lat="43.64857" lon="3.17139">
        <ele>225.09</ele>
        <time>2017-07-27T08:47:27Z</time>
      </trkpt>
      <trkpt lat="43.64877" lon="3.17125">
        <ele>224.61</ele>
        <time>2017-07-27T08:47:44Z</time>
      </trkpt>
      <trkpt lat="43.64888" lon="3.17121">
        <ele>224.61</ele>
        <time>2017-07-27T08:47:58Z</time>
      </trkpt>
      <trkpt lat="43.64896" lon="3.17117">
        <ele>223.64</ele>
        <time>2017-07-27T08:48:10Z</time>
      </trkpt>
      <trkpt lat="43.64896" lon="3.17117">
        <ele>223.64</ele>
        <time>2017-07-27T08:48:11Z</time>
      </trkpt>
      <trkpt lat="43.6491" lon="3.17113">
        <ele>223.16</ele>
        <time>2017-07-27T08:48:28Z</time>
      </trkpt>
      <trkpt lat="43.6491" lon="3.17103">
        <ele>221.72</ele>
        <time>2017-07-27T08:48:36Z</time>
      </trkpt>
      <trkpt lat="43.64909" lon="3.17092">
        <ele>220.76</ele>
        <time>2017-07-27T08:48:43Z</time>
      </trkpt>
      <trkpt lat="43.64904" lon="3.17072">
        <ele>220.28</ele>
        <time>2017-07-27T08:49:00Z</time>
      </trkpt>
      <trkpt lat="43.64892" lon="3.17054">
        <ele>219.8</ele>
        <time>2017-07-27T08:49:18Z</time>
      </trkpt>
      <trkpt lat="43.64887" lon="3.17049">
        <ele>219.8</ele>
        <time>2017-07-27T08:49:24Z</time>
      </trkpt>
      <trkpt lat="43.64873" lon="3.17032">
        <ele>219.32</ele>
        <time>2017-07-27T08:49:39Z</time>
      </trkpt>
      <trkpt lat="43.64856" lon="3.17017">
        <ele>218.36</ele>
        <time>2017-07-27T08:49:56Z</time>
      </trkpt>
      <trkpt lat="43.64842" lon="3.1701">
        <ele>217.88</ele>
        <time>2017-07-27T08:50:08Z</time>
      </trkpt>
      <trkpt lat="43.64836" lon="3.17008">
        <ele>217.88</ele>
        <time>2017-07-27T08:50:12Z</time>
      </trkpt>
      <trkpt lat="43.64831" lon="3.17006">
        <ele>217.4</ele>
        <time>2017-07-27T08:50:15Z</time>
      </trkpt>
      <trkpt lat="43.64825" lon="3.17004">
        <ele>217.88</ele>
        <time>2017-07-27T08:50:19Z</time>
      </trkpt>
      <trkpt lat="43.64821" lon="3.17001">
        <ele>217.88</ele>
        <time>2017-07-27T08:50:22Z</time>
      </trkpt>
      <trkpt lat="43.64817" lon="3.16999">
        <ele>217.88</ele>
        <time>2017-07-27T08:50:26Z</time>
      </trkpt>
      <trkpt lat="43.64804" lon="3.16991">
        <ele>217.4</ele>
        <time>2017-07-27T08:50:38Z</time>
      </trkpt>
      <trkpt lat="43.64801" lon="3.16987">
        <ele>216.91</ele>
        <time>2017-07-27T08:50:50Z</time>
      </trkpt>
      <trkpt lat="43.64797" lon="3.16983">
        <ele>216.91</ele>
        <time>2017-07-27T08:51:19Z</time>
      </trkpt>
      <trkpt lat="43.64791" lon="3.16977">
        <ele>216.91</ele>
        <time>2017-07-27T08:51:26Z</time>
      </trkpt>
      <trkpt lat="43.64785" lon="3.16967">
        <ele>216.91</ele>
        <time>2017-07-27T08:51:34Z</time>
      </trkpt>
      <trkpt lat="43.64773" lon="3.1696">
        <ele>216.43</ele>
        <time>2017-07-27T08:51:46Z</time>
      </trkpt>
      <trkpt lat="43.64756" lon="3.16951">
        <ele>215.95</ele>
        <time>2017-07-27T08:52:01Z</time>
      </trkpt>
      <trkpt lat="43.64744" lon="3.16945">
        <ele>215.47</ele>
        <time>2017-07-27T08:52:10Z</time>
      </trkpt>
      <trkpt lat="43.64732" lon="3.16938">
        <ele>215.47</ele>
        <time>2017-07-27T08:52:20Z</time>
      </trkpt>
      <trkpt lat="43.64715" lon="3.16929">
        <ele>215.47</ele>
        <time>2017-07-27T08:52:35Z</time>
      </trkpt>
      <trkpt lat="43.64712" lon="3.16927">
        <ele>215.47</ele>
        <time>2017-07-27T08:52:38Z</time>
      </trkpt>
      <trkpt lat="43.64694" lon="3.16929">
        <ele>215.47</ele>
        <time>2017-07-27T08:52:51Z</time>
      </trkpt>
      <trkpt lat="43.64687" lon="3.1693">
        <ele>215.47</ele>
        <time>2017-07-27T08:52:56Z</time>
      </trkpt>
      <trkpt lat="43.64682" lon="3.16933">
        <ele>214.99</ele>
        <time>2017-07-27T08:53:00Z</time>
      </trkpt>
      <trkpt lat="43.64668" lon="3.16937">
        <ele>214.99</ele>
        <time>2017-07-27T08:53:11Z</time>
      </trkpt>
      <trkpt lat="43.64665" lon="3.1694">
        <ele>214.99</ele>
        <time>2017-07-27T08:53:15Z</time>
      </trkpt>
      <trkpt lat="43.64662" lon="3.16941">
        <ele>214.99</ele>
        <time>2017-07-27T08:53:17Z</time>
      </trkpt>
      <trkpt lat="43.64657" lon="3.16944">
        <ele>214.99</ele>
        <time>2017-07-27T08:53:21Z</time>
      </trkpt>
      <trkpt lat="43.64642" lon="3.16957">
        <ele>214.51</ele>
        <time>2017-07-27T08:53:35Z</time>
      </trkpt>
      <trkpt lat="43.6463" lon="3.16968">
        <ele>214.51</ele>
        <time>2017-07-27T08:53:47Z</time>
      </trkpt>
      <trkpt lat="43.64621" lon="3.1698">
        <ele>214.51</ele>
        <time>2017-07-27T08:53:59Z</time>
      </trkpt>
      <trkpt lat="43.64613" lon="3.16985">
        <ele>214.51</ele>
        <time>2017-07-27T08:54:07Z</time>
      </trkpt>
      <trkpt lat="43.64599" lon="3.16991">
        <ele>214.51</ele>
        <time>2017-07-27T08:54:20Z</time>
      </trkpt>
      <trkpt lat="43.64585" lon="3.16999">
        <ele>214.51</ele>
        <time>2017-07-27T08:54:33Z</time>
      </trkpt>
      <trkpt lat="43.64579" lon="3.17003">
        <ele>214.51</ele>
        <time>2017-07-27T08:54:39Z</time>
      </trkpt>
      <trkpt lat="43.64576" lon="3.17006">
        <ele>214.51</ele>
        <time>2017-07-27T08:54:42Z</time>
      </trkpt>
      <trkpt lat="43.64562" lon="3.1702">
        <ele>214.51</ele>
        <time>2017-07-27T08:54:56Z</time>
      </trkpt>
      <trkpt lat="43.64559" lon="3.17022">
        <ele>214.51</ele>
        <time>2017-07-27T08:54:58Z</time>
      </trkpt>
      <trkpt lat="43.64553" lon="3.17027">
        <ele>214.51</ele>
        <time>2017-07-27T08:55:03Z</time>
      </trkpt>
      <trkpt lat="43.64551" lon="3.17029">
        <ele>214.03</ele>
        <time>2017-07-27T08:55:05Z</time>
      </trkpt>
      <trkpt lat="43.64549" lon="3.17031">
        <ele>214.51</ele>
        <time>2017-07-27T08:55:07Z</time>
      </trkpt>
      <trkpt lat="43.64546" lon="3.17034">
        <ele>214.51</ele>
        <time>2017-07-27T08:55:10Z</time>
      </trkpt>
      <trkpt lat="43.64545" lon="3.17036">
        <ele>214.51</ele>
        <time>2017-07-27T08:55:12Z</time>
      </trkpt>
      <trkpt lat="43.6454" lon="3.17038">
        <ele>214.51</ele>
        <time>2017-07-27T08:55:16Z</time>
      </trkpt>
      <trkpt lat="43.64538" lon="3.17039">
        <ele>214.51</ele>
        <time>2017-07-27T08:55:18Z</time>
      </trkpt>
      <trkpt lat="43.64533" lon="3.17041">
        <ele>214.51</ele>
        <time>2017-07-27T08:55:22Z</time>
      </trkpt>
      <trkpt lat="43.6453" lon="3.17044">
        <ele>214.99</ele>
        <time>2017-07-27T08:55:25Z</time>
      </trkpt>
      <trkpt lat="43.64521" lon="3.17047">
        <ele>214.51</ele>
        <time>2017-07-27T08:55:33Z</time>
      </trkpt>
      <trkpt lat="43.64516" lon="3.17051">
        <ele>214.51</ele>
        <time>2017-07-27T08:55:38Z</time>
      </trkpt>
      <trkpt lat="43.64509" lon="3.17054">
        <ele>214.51</ele>
        <time>2017-07-27T08:55:44Z</time>
      </trkpt>
      <trkpt lat="43.64506" lon="3.17056">
        <ele>214.51</ele>
        <time>2017-07-27T08:55:47Z</time>
      </trkpt>
      <trkpt lat="43.64491" lon="3.17067">
        <ele>214.03</ele>
        <time>2017-07-27T08:56:04Z</time>
      </trkpt>
      <trkpt lat="43.6448" lon="3.17073">
        <ele>214.03</ele>
        <time>2017-07-27T08:56:20Z</time>
      </trkpt>
      <trkpt lat="43.64463" lon="3.1708">
        <ele>214.03</ele>
        <time>2017-07-27T08:56:37Z</time>
      </trkpt>
      <trkpt lat="43.64457" lon="3.17082">
        <ele>214.03</ele>
        <time>2017-07-27T08:56:45Z</time>
      </trkpt>
      <trkpt lat="43.64447" lon="3.17086">
        <ele>213.55</ele>
        <time>2017-07-27T08:56:53Z</time>
      </trkpt>
      <trkpt lat="43.6443" lon="3.17096">
        <ele>213.55</ele>
        <time>2017-07-27T08:57:06Z</time>
      </trkpt>
      <trkpt lat="43.64414" lon="3.17105">
        <ele>214.03</ele>
        <time>2017-07-27T08:57:24Z</time>
      </trkpt>
      <trkpt lat="43.64398" lon="3.17112">
        <ele>213.07</ele>
        <time>2017-07-27T08:57:41Z</time>
      </trkpt>
      <trkpt lat="43.6438" lon="3.17118">
        <ele>213.55</ele>
        <time>2017-07-27T08:57:59Z</time>
      </trkpt>
      <trkpt lat="43.64364" lon="3.17118">
        <ele>213.07</ele>
        <time>2017-07-27T08:58:14Z</time>
      </trkpt>
      <trkpt lat="43.64356" lon="3.17116">
        <ele>212.11</ele>
        <time>2017-07-27T08:58:23Z</time>
      </trkpt>
      <trkpt lat="43.64337" lon="3.17116">
        <ele>212.59</ele>
        <time>2017-07-27T08:58:39Z</time>
      </trkpt>
      <trkpt lat="43.64319" lon="3.17111">
        <ele>212.11</ele>
        <time>2017-07-27T08:58:54Z</time>
      </trkpt>
      <trkpt lat="43.64307" lon="3.17107">
        <ele>211.63</ele>
        <time>2017-07-27T08:59:09Z</time>
      </trkpt>
      <trkpt lat="43.64292" lon="3.171">
        <ele>212.11</ele>
        <time>2017-07-27T08:59:23Z</time>
      </trkpt>
      <trkpt lat="43.64286" lon="3.17098">
        <ele>211.63</ele>
        <time>2017-07-27T08:59:28Z</time>
      </trkpt>
      <trkpt lat="43.64263" lon="3.1709">
        <ele>211.15</ele>
        <time>2017-07-27T08:59:46Z</time>
      </trkpt>
      <trkpt lat="43.64247" lon="3.17083">
        <ele>211.15</ele>
        <time>2017-07-27T09:00:02Z</time>
      </trkpt>
      <trkpt lat="43.64229" lon="3.17072">
        <ele>210.19</ele>
        <time>2017-07-27T09:00:17Z</time>
      </trkpt>
      <trkpt lat="43.64213" lon="3.17066">
        <ele>211.15</ele>
        <time>2017-07-27T09:00:31Z</time>
      </trkpt>
      <trkpt lat="43.64194" lon="3.17061">
        <ele>212.59</ele>
        <time>2017-07-27T09:00:47Z</time>
      </trkpt>
      <trkpt lat="43.64181" lon="3.17052">
        <ele>212.59</ele>
        <time>2017-07-27T09:01:03Z</time>
      </trkpt>
      <trkpt lat="43.64166" lon="3.17047">
        <ele>211.63</ele>
        <time>2017-07-27T09:01:16Z</time>
      </trkpt>
      <trkpt lat="43.64154" lon="3.17035">
        <ele>209.7</ele>
        <time>2017-07-27T09:01:28Z</time>
      </trkpt>
      <trkpt lat="43.64143" lon="3.17025">
        <ele>209.7</ele>
        <time>2017-07-27T09:01:43Z</time>
      </trkpt>
      <trkpt lat="43.64134" lon="3.17015">
        <ele>210.19</ele>
        <time>2017-07-27T09:01:57Z</time>
      </trkpt>
      <trkpt lat="43.64125" lon="3.17001">
        <ele>209.7</ele>
        <time>2017-07-27T09:02:13Z</time>
      </trkpt>
      <trkpt lat="43.6411" lon="3.16991">
        <ele>207.78</ele>
        <time>2017-07-27T09:02:33Z</time>
      </trkpt>
      <trkpt lat="43.6411" lon="3.16969">
        <ele>208.26</ele>
        <time>2017-07-27T09:02:51Z</time>
      </trkpt>
      <trkpt lat="43.64106" lon="3.16955">
        <ele>208.26</ele>
        <time>2017-07-27T09:03:12Z</time>
      </trkpt>
      <trkpt lat="43.64094" lon="3.16942">
        <ele>207.78</ele>
        <time>2017-07-27T09:03:23Z</time>
      </trkpt>
      <trkpt lat="43.64082" lon="3.16922">
        <ele>208.26</ele>
        <time>2017-07-27T09:03:42Z</time>
      </trkpt>
      <trkpt lat="43.64074" lon="3.16908">
        <ele>210.19</ele>
        <time>2017-07-27T09:03:55Z</time>
      </trkpt>
      <trkpt lat="43.64067" lon="3.16898">
        <ele>212.11</ele>
        <time>2017-07-27T09:04:05Z</time>
      </trkpt>
      <trkpt lat="43.64061" lon="3.16888">
        <ele>213.07</ele>
        <time>2017-07-27T09:04:16Z</time>
      </trkpt>
      <trkpt lat="43.64055" lon="3.16878">
        <ele>212.11</ele>
        <time>2017-07-27T09:04:25Z</time>
      </trkpt>
      <trkpt lat="43.64051" lon="3.1687">
        <ele>212.11</ele>
        <time>2017-07-27T09:04:31Z</time>
      </trkpt>
      <trkpt lat="43.64046" lon="3.1686">
        <ele>212.11</ele>
        <time>2017-07-27T09:04:39Z</time>
      </trkpt>
      <trkpt lat="43.64044" lon="3.16855">
        <ele>212.11</ele>
        <time>2017-07-27T09:04:42Z</time>
      </trkpt>
      <trkpt lat="43.64036" lon="3.16842">
        <ele>211.63</ele>
        <time>2017-07-27T09:04:53Z</time>
      </trkpt>
      <trkpt lat="43.64036" lon="3.16841">
        <ele>211.63</ele>
        <time>2017-07-27T09:04:54Z</time>
      </trkpt>
      <trkpt lat="43.64029" lon="3.16828">
        <ele>211.63</ele>
        <time>2017-07-27T09:05:05Z</time>
      </trkpt>
      <trkpt lat="43.64021" lon="3.16815">
        <ele>210.67</ele>
        <time>2017-07-27T09:05:17Z</time>
      </trkpt>
      <trkpt lat="43.64019" lon="3.16811">
        <ele>210.19</ele>
        <time>2017-07-27T09:05:20Z</time>
      </trkpt>
      <trkpt lat="43.64012" lon="3.16797">
        <ele>209.7</ele>
        <time>2017-07-27T09:05:30Z</time>
      </trkpt>
      <trkpt lat="43.64005" lon="3.16782">
        <ele>210.19</ele>
        <time>2017-07-27T09:05:44Z</time>
      </trkpt>
      <trkpt lat="43.63997" lon="3.16774">
        <ele>210.19</ele>
        <time>2017-07-27T09:05:55Z</time>
      </trkpt>
      <trkpt lat="43.63988" lon="3.16761">
        <ele>209.7</ele>
        <time>2017-07-27T09:06:08Z</time>
      </trkpt>
      <trkpt lat="43.63984" lon="3.16754">
        <ele>209.22</ele>
        <time>2017-07-27T09:06:13Z</time>
      </trkpt>
      <trkpt lat="43.63983" lon="3.16751">
        <ele>209.22</ele>
        <time>2017-07-27T09:06:15Z</time>
      </trkpt>
      <trkpt lat="43.63983" lon="3.16748">
        <ele>208.74</ele>
        <time>2017-07-27T09:06:17Z</time>
      </trkpt>
      <trkpt lat="43.63974" lon="3.16725">
        <ele>208.26</ele>
        <time>2017-07-27T09:06:30Z</time>
      </trkpt>
      <trkpt lat="43.63972" lon="3.1672">
        <ele>208.26</ele>
        <time>2017-07-27T09:06:33Z</time>
      </trkpt>
      <trkpt lat="43.63964" lon="3.16702">
        <ele>208.26</ele>
        <time>2017-07-27T09:06:44Z</time>
      </trkpt>
      <trkpt lat="43.63961" lon="3.16696">
        <ele>207.78</ele>
        <time>2017-07-27T09:06:58Z</time>
      </trkpt>
      <trkpt lat="43.63957" lon="3.16691">
        <ele>208.26</ele>
        <time>2017-07-27T09:07:23Z</time>
      </trkpt>
      <trkpt lat="43.63951" lon="3.16678">
        <ele>207.78</ele>
        <time>2017-07-27T09:07:35Z</time>
      </trkpt>
      <trkpt lat="43.63936" lon="3.16659">
        <ele>207.78</ele>
        <time>2017-07-27T09:07:51Z</time>
      </trkpt>
      <trkpt lat="43.63934" lon="3.16655">
        <ele>207.78</ele>
        <time>2017-07-27T09:07:55Z</time>
      </trkpt>
      <trkpt lat="43.63917" lon="3.16634">
        <ele>208.74</ele>
        <time>2017-07-27T09:08:16Z</time>
      </trkpt>
      <trkpt lat="43.63913" lon="3.16631">
        <ele>208.74</ele>
        <time>2017-07-27T09:08:20Z</time>
      </trkpt>
      <trkpt lat="43.63899" lon="3.16613">
        <ele>208.74</ele>
        <time>2017-07-27T09:08:35Z</time>
      </trkpt>
      <trkpt lat="43.63888" lon="3.16602">
        <ele>208.74</ele>
        <time>2017-07-27T09:08:49Z</time>
      </trkpt>
      <trkpt lat="43.63873" lon="3.16589">
        <ele>208.74</ele>
        <time>2017-07-27T09:09:06Z</time>
      </trkpt>
      <trkpt lat="43.63871" lon="3.16585">
        <ele>208.74</ele>
        <time>2017-07-27T09:09:10Z</time>
      </trkpt>
      <trkpt lat="43.63859" lon="3.16569">
        <ele>208.74</ele>
        <time>2017-07-27T09:09:23Z</time>
      </trkpt>
      <trkpt lat="43.63841" lon="3.16553">
        <ele>208.26</ele>
        <time>2017-07-27T09:09:39Z</time>
      </trkpt>
      <trkpt lat="43.63824" lon="3.1654">
        <ele>208.26</ele>
        <time>2017-07-27T09:09:55Z</time>
      </trkpt>
      <trkpt lat="43.63808" lon="3.16525">
        <ele>208.26</ele>
        <time>2017-07-27T09:10:11Z</time>
      </trkpt>
      <trkpt lat="43.6379" lon="3.16513">
        <ele>207.78</ele>
        <time>2017-07-27T09:10:27Z</time>
      </trkpt>
      <trkpt lat="43.63777" lon="3.16504">
        <ele>207.78</ele>
        <time>2017-07-27T09:10:39Z</time>
      </trkpt>
      <trkpt lat="43.63755" lon="3.16491">
        <ele>207.78</ele>
        <time>2017-07-27T09:10:58Z</time>
      </trkpt>
      <trkpt lat="43.63737" lon="3.16481">
        <ele>207.78</ele>
        <time>2017-07-27T09:11:16Z</time>
      </trkpt>
      <trkpt lat="43.63724" lon="3.16475">
        <ele>207.78</ele>
        <time>2017-07-27T09:11:27Z</time>
      </trkpt>
      <trkpt lat="43.63717" lon="3.16473">
        <ele>207.78</ele>
        <time>2017-07-27T09:11:32Z</time>
      </trkpt>
      <trkpt lat="43.63697" lon="3.16466">
        <ele>208.26</ele>
        <time>2017-07-27T09:11:50Z</time>
      </trkpt>
      <trkpt lat="43.63686" lon="3.16454">
        <ele>207.78</ele>
        <time>2017-07-27T09:12:05Z</time>
      </trkpt>
      <trkpt lat="43.63683" lon="3.16441">
        <ele>207.3</ele>
        <time>2017-07-27T09:12:18Z</time>
      </trkpt>
      <trkpt lat="43.63679" lon="3.16433">
        <ele>207.3</ele>
        <time>2017-07-27T09:12:33Z</time>
      </trkpt>
      <trkpt lat="43.63684" lon="3.16419">
        <ele>207.3</ele>
        <time>2017-07-27T09:12:44Z</time>
      </trkpt>
      <trkpt lat="43.63687" lon="3.16412">
        <ele>207.3</ele>
        <time>2017-07-27T09:12:56Z</time>
      </trkpt>
      <trkpt lat="43.63688" lon="3.16404">
        <ele>206.82</ele>
        <time>2017-07-27T09:13:32Z</time>
      </trkpt>
      <trkpt lat="43.63685" lon="3.16402">
        <ele>206.82</ele>
        <time>2017-07-27T09:13:59Z</time>
      </trkpt>
      <trkpt lat="43.63683" lon="3.16412">
        <ele>206.82</ele>
        <time>2017-07-27T09:14:28Z</time>
      </trkpt>
      <trkpt lat="43.63683" lon="3.16416">
        <ele>206.82</ele>
        <time>2017-07-27T09:14:46Z</time>
      </trkpt>
      <trkpt lat="43.63681" lon="3.16417">
        <ele>206.82</ele>
        <time>2017-07-27T09:15:10Z</time>
      </trkpt>
      <trkpt lat="43.63681" lon="3.16417">
        <ele>206.82</ele>
        <time>2017-07-27T09:15:29Z</time>
      </trkpt>
      <trkpt lat="43.63684" lon="3.16416">
        <ele>206.82</ele>
        <time>2017-07-27T09:15:52Z</time>
      </trkpt>
      <trkpt lat="43.6368" lon="3.16419">
        <ele>206.82</ele>
        <time>2017-07-27T09:16:16Z</time>
      </trkpt>
      <trkpt lat="43.63671" lon="3.16422">
        <ele>207.3</ele>
        <time>2017-07-27T09:16:27Z</time>
      </trkpt>
      <trkpt lat="43.63671" lon="3.16418">
        <ele>207.3</ele>
        <time>2017-07-27T09:16:29Z</time>
      </trkpt>
      <trkpt lat="43.63667" lon="3.16414">
        <ele>207.3</ele>
        <time>2017-07-27T09:16:35Z</time>
      </trkpt>
      <trkpt lat="43.63652" lon="3.1641">
        <ele>207.3</ele>
        <time>2017-07-27T09:16:51Z</time>
      </trkpt>
      <trkpt lat="43.63635" lon="3.16406">
        <ele>207.78</ele>
        <time>2017-07-27T09:17:07Z</time>
      </trkpt>
      <trkpt lat="43.63619" lon="3.16402">
        <ele>207.3</ele>
        <time>2017-07-27T09:17:22Z</time>
      </trkpt>
      <trkpt lat="43.63617" lon="3.16401">
        <ele>207.3</ele>
        <time>2017-07-27T09:17:24Z</time>
      </trkpt>
      <trkpt lat="43.63596" lon="3.16399">
        <ele>207.3</ele>
        <time>2017-07-27T09:17:41Z</time>
      </trkpt>
      <trkpt lat="43.63582" lon="3.16394">
        <ele>207.3</ele>
        <time>2017-07-27T09:17:55Z</time>
      </trkpt>
      <trkpt lat="43.63574" lon="3.16392">
        <ele>207.3</ele>
        <time>2017-07-27T09:18:01Z</time>
      </trkpt>
      <trkpt lat="43.63567" lon="3.16394">
        <ele>207.3</ele>
        <time>2017-07-27T09:18:07Z</time>
      </trkpt>
      <trkpt lat="43.63549" lon="3.16395">
        <ele>206.82</ele>
        <time>2017-07-27T09:18:23Z</time>
      </trkpt>
      <trkpt lat="43.63541" lon="3.16399">
        <ele>206.82</ele>
        <time>2017-07-27T09:18:29Z</time>
      </trkpt>
      <trkpt lat="43.63526" lon="3.16402">
        <ele>206.34</ele>
        <time>2017-07-27T09:18:44Z</time>
      </trkpt>
      <trkpt lat="43.63518" lon="3.16405">
        <ele>206.34</ele>
        <time>2017-07-27T09:18:50Z</time>
      </trkpt>
      <trkpt lat="43.63499" lon="3.16407">
        <ele>206.82</ele>
        <time>2017-07-27T09:19:05Z</time>
      </trkpt>
      <trkpt lat="43.63488" lon="3.16402">
        <ele>206.82</ele>
        <time>2017-07-27T09:19:17Z</time>
      </trkpt>
      <trkpt lat="43.63479" lon="3.16396">
        <ele>206.34</ele>
        <time>2017-07-27T09:19:28Z</time>
      </trkpt>
      <trkpt lat="43.63471" lon="3.16394">
        <ele>206.82</ele>
        <time>2017-07-27T09:19:35Z</time>
      </trkpt>
      <trkpt lat="43.63455" lon="3.16391">
        <ele>205.86</ele>
        <time>2017-07-27T09:19:50Z</time>
      </trkpt>
      <trkpt lat="43.6344" lon="3.16386">
        <ele>205.86</ele>
        <time>2017-07-27T09:20:03Z</time>
      </trkpt>
      <trkpt lat="43.63438" lon="3.16385">
        <ele>205.38</ele>
        <time>2017-07-27T09:20:05Z</time>
      </trkpt>
      <trkpt lat="43.63428" lon="3.16387">
        <ele>205.38</ele>
        <time>2017-07-27T09:20:11Z</time>
      </trkpt>
      <trkpt lat="43.63419" lon="3.1639">
        <ele>205.38</ele>
        <time>2017-07-27T09:20:18Z</time>
      </trkpt>
      <trkpt lat="43.63401" lon="3.16396">
        <ele>205.38</ele>
        <time>2017-07-27T09:20:32Z</time>
      </trkpt>
      <trkpt lat="43.63379" lon="3.16402">
        <ele>204.9</ele>
        <time>2017-07-27T09:20:49Z</time>
      </trkpt>
      <trkpt lat="43.63359" lon="3.16408">
        <ele>205.38</ele>
        <time>2017-07-27T09:21:07Z</time>
      </trkpt>
      <trkpt lat="43.63339" lon="3.16413">
        <ele>204.9</ele>
        <time>2017-07-27T09:21:24Z</time>
      </trkpt>
      <trkpt lat="43.63319" lon="3.16415">
        <ele>204.9</ele>
        <time>2017-07-27T09:21:38Z</time>
      </trkpt>
      <trkpt lat="43.63299" lon="3.16419">
        <ele>205.38</ele>
        <time>2017-07-27T09:21:54Z</time>
      </trkpt>
      <trkpt lat="43.63297" lon="3.16419">
        <ele>204.9</ele>
        <time>2017-07-27T09:21:56Z</time>
      </trkpt>
      <trkpt lat="43.63291" lon="3.16418">
        <ele>204.9</ele>
        <time>2017-07-27T09:22:01Z</time>
      </trkpt>
      <trkpt lat="43.63281" lon="3.16419">
        <ele>204.9</ele>
        <time>2017-07-27T09:22:08Z</time>
      </trkpt>
      <trkpt lat="43.63256" lon="3.16421">
        <ele>204.42</ele>
        <time>2017-07-27T09:22:28Z</time>
      </trkpt>
      <trkpt lat="43.63237" lon="3.16421">
        <ele>203.94</ele>
        <time>2017-07-27T09:22:45Z</time>
      </trkpt>
      <trkpt lat="43.63221" lon="3.16424">
        <ele>202.98</ele>
        <time>2017-07-27T09:23:00Z</time>
      </trkpt>
      <trkpt lat="43.6321" lon="3.16426">
        <ele>203.46</ele>
        <time>2017-07-27T09:23:08Z</time>
      </trkpt>
      <trkpt lat="43.63197" lon="3.1643">
        <ele>202.98</ele>
        <time>2017-07-27T09:23:17Z</time>
      </trkpt>
      <trkpt lat="43.63191" lon="3.16431">
        <ele>202.98</ele>
        <time>2017-07-27T09:23:21Z</time>
      </trkpt>
      <trkpt lat="43.63167" lon="3.1644">
        <ele>202.98</ele>
        <time>2017-07-27T09:23:39Z</time>
      </trkpt>
      <trkpt lat="43.63146" lon="3.16448">
        <ele>202.98</ele>
        <time>2017-07-27T09:23:57Z</time>
      </trkpt>
      <trkpt lat="43.63126" lon="3.16453">
        <ele>202.98</ele>
        <time>2017-07-27T09:24:13Z</time>
      </trkpt>
      <trkpt lat="43.63103" lon="3.16463">
        <ele>202.49</ele>
        <time>2017-07-27T09:24:31Z</time>
      </trkpt>
      <trkpt lat="43.63091" lon="3.16469">
        <ele>202.49</ele>
        <time>2017-07-27T09:24:41Z</time>
      </trkpt>
      <trkpt lat="43.63086" lon="3.16471">
        <ele>202.01</ele>
        <time>2017-07-27T09:24:45Z</time>
      </trkpt>
      <trkpt lat="43.63065" lon="3.16481">
        <ele>201.53</ele>
        <time>2017-07-27T09:25:03Z</time>
      </trkpt>
      <trkpt lat="43.63045" lon="3.16487">
        <ele>202.01</ele>
        <time>2017-07-27T09:25:22Z</time>
      </trkpt>
      <trkpt lat="43.63023" lon="3.16496">
        <ele>201.53</ele>
        <time>2017-07-27T09:25:42Z</time>
      </trkpt>
      <trkpt lat="43.63001" lon="3.16507">
        <ele>202.01</ele>
        <time>2017-07-27T09:26:02Z</time>
      </trkpt>
      <trkpt lat="43.62991" lon="3.16512">
        <ele>202.01</ele>
        <time>2017-07-27T09:26:09Z</time>
      </trkpt>
      <trkpt lat="43.62967" lon="3.16526">
        <ele>202.01</ele>
        <time>2017-07-27T09:26:28Z</time>
      </trkpt>
      <trkpt lat="43.62952" lon="3.16534">
        <ele>202.01</ele>
        <time>2017-07-27T09:26:41Z</time>
      </trkpt>
      <trkpt lat="43.62935" lon="3.16544">
        <ele>202.01</ele>
        <time>2017-07-27T09:26:56Z</time>
      </trkpt>
      <trkpt lat="43.62909" lon="3.16561">
        <ele>202.49</ele>
        <time>2017-07-27T09:27:20Z</time>
      </trkpt>
      <trkpt lat="43.62889" lon="3.16567">
        <ele>202.01</ele>
        <time>2017-07-27T09:27:39Z</time>
      </trkpt>
      <trkpt lat="43.62864" lon="3.16574">
        <ele>201.53</ele>
        <time>2017-07-27T09:27:55Z</time>
      </trkpt>
      <trkpt lat="43.62844" lon="3.16583">
        <ele>201.53</ele>
        <time>2017-07-27T09:28:11Z</time>
      </trkpt>
      <trkpt lat="43.62826" lon="3.16586">
        <ele>201.53</ele>
        <time>2017-07-27T09:28:25Z</time>
      </trkpt>
      <trkpt lat="43.62818" lon="3.16588">
        <ele>201.53</ele>
        <time>2017-07-27T09:28:31Z</time>
      </trkpt>
      <trkpt lat="43.62802" lon="3.1659">
        <ele>201.05</ele>
        <time>2017-07-27T09:28:44Z</time>
      </trkpt>
      <trkpt lat="43.62798" lon="3.16591">
        <ele>201.53</ele>
        <time>2017-07-27T09:28:47Z</time>
      </trkpt>
      <trkpt lat="43.6279" lon="3.16591">
        <ele>201.53</ele>
        <time>2017-07-27T09:28:54Z</time>
      </trkpt>
      <trkpt lat="43.62777" lon="3.16593">
        <ele>201.53</ele>
        <time>2017-07-27T09:29:05Z</time>
      </trkpt>
      <trkpt lat="43.62762" lon="3.16593">
        <ele>201.53</ele>
        <time>2017-07-27T09:29:17Z</time>
      </trkpt>
      <trkpt lat="43.62755" lon="3.16593">
        <ele>201.53</ele>
        <time>2017-07-27T09:29:22Z</time>
      </trkpt>
      <trkpt lat="43.62746" lon="3.16594">
        <ele>201.05</ele>
        <time>2017-07-27T09:29:30Z</time>
      </trkpt>
      <trkpt lat="43.62742" lon="3.16593">
        <ele>201.05</ele>
        <time>2017-07-27T09:29:34Z</time>
      </trkpt>
      <trkpt lat="43.62736" lon="3.16594">
        <ele>201.53</ele>
        <time>2017-07-27T09:29:39Z</time>
      </trkpt>
      <trkpt lat="43.62734" lon="3.16594">
        <ele>201.53</ele>
        <time>2017-07-27T09:29:41Z</time>
      </trkpt>
      <trkpt lat="43.62714" lon="3.16595">
        <ele>201.05</ele>
        <time>2017-07-27T09:29:58Z</time>
      </trkpt>
      <trkpt lat="43.62699" lon="3.16598">
        <ele>201.05</ele>
        <time>2017-07-27T09:30:11Z</time>
      </trkpt>
      <trkpt lat="43.62691" lon="3.166">
        <ele>201.05</ele>
        <time>2017-07-27T09:30:18Z</time>
      </trkpt>
      <trkpt lat="43.62688" lon="3.16602">
        <ele>201.05</ele>
        <time>2017-07-27T09:30:21Z</time>
      </trkpt>
      <trkpt lat="43.62683" lon="3.16604">
        <ele>201.53</ele>
        <time>2017-07-27T09:30:26Z</time>
      </trkpt>
      <trkpt lat="43.62678" lon="3.16605">
        <ele>201.53</ele>
        <time>2017-07-27T09:30:31Z</time>
      </trkpt>
      <trkpt lat="43.62673" lon="3.16606">
        <ele>201.05</ele>
        <time>2017-07-27T09:30:36Z</time>
      </trkpt>
      <trkpt lat="43.6266" lon="3.16606">
        <ele>201.05</ele>
        <time>2017-07-27T09:30:45Z</time>
      </trkpt>
      <trkpt lat="43.6265" lon="3.16607">
        <ele>201.05</ele>
        <time>2017-07-27T09:30:53Z</time>
      </trkpt>
      <trkpt lat="43.62644" lon="3.16607">
        <ele>200.57</ele>
        <time>2017-07-27T09:30:58Z</time>
      </trkpt>
      <trkpt lat="43.62637" lon="3.16607">
        <ele>201.05</ele>
        <time>2017-07-27T09:31:04Z</time>
      </trkpt>
      <trkpt lat="43.62625" lon="3.16613">
        <ele>201.53</ele>
        <time>2017-07-27T09:31:16Z</time>
      </trkpt>
      <trkpt lat="43.62622" lon="3.16615">
        <ele>201.53</ele>
        <time>2017-07-27T09:31:20Z</time>
      </trkpt>
      <trkpt lat="43.62611" lon="3.16622">
        <ele>201.53</ele>
        <time>2017-07-27T09:31:29Z</time>
      </trkpt>
      <trkpt lat="43.62608" lon="3.16624">
        <ele>201.05</ele>
        <time>2017-07-27T09:31:32Z</time>
      </trkpt>
      <trkpt lat="43.62598" lon="3.16632">
        <ele>201.05</ele>
        <time>2017-07-27T09:31:42Z</time>
      </trkpt>
      <trkpt lat="43.62586" lon="3.16637">
        <ele>201.05</ele>
        <time>2017-07-27T09:31:54Z</time>
      </trkpt>
      <trkpt lat="43.62581" lon="3.1664">
        <ele>201.05</ele>
        <time>2017-07-27T09:31:59Z</time>
      </trkpt>
      <trkpt lat="43.62576" lon="3.16638">
        <ele>201.05</ele>
        <time>2017-07-27T09:32:02Z</time>
      </trkpt>
      <trkpt lat="43.62566" lon="3.16639">
        <ele>200.57</ele>
        <time>2017-07-27T09:32:11Z</time>
      </trkpt>
      <trkpt lat="43.62563" lon="3.16641">
        <ele>201.05</ele>
        <time>2017-07-27T09:32:13Z</time>
      </trkpt>
      <trkpt lat="43.62558" lon="3.16641">
        <ele>201.05</ele>
        <time>2017-07-27T09:32:17Z</time>
      </trkpt>
      <trkpt lat="43.62539" lon="3.16642">
        <ele>200.57</ele>
        <time>2017-07-27T09:32:32Z</time>
      </trkpt>
      <trkpt lat="43.62534" lon="3.16642">
        <ele>200.57</ele>
        <time>2017-07-27T09:32:35Z</time>
      </trkpt>
      <trkpt lat="43.6252" lon="3.16643">
        <ele>200.09</ele>
        <time>2017-07-27T09:32:48Z</time>
      </trkpt>
      <trkpt lat="43.62513" lon="3.16642">
        <ele>200.09</ele>
        <time>2017-07-27T09:32:54Z</time>
      </trkpt>
      <trkpt lat="43.62508" lon="3.16642">
        <ele>200.57</ele>
        <time>2017-07-27T09:32:59Z</time>
      </trkpt>
      <trkpt lat="43.62498" lon="3.16644">
        <ele>200.57</ele>
        <time>2017-07-27T09:33:07Z</time>
      </trkpt>
      <trkpt lat="43.62482" lon="3.16647">
        <ele>201.05</ele>
        <time>2017-07-27T09:33:22Z</time>
      </trkpt>
      <trkpt lat="43.6247" lon="3.16646">
        <ele>201.05</ele>
        <time>2017-07-27T09:33:32Z</time>
      </trkpt>
      <trkpt lat="43.62468" lon="3.16646">
        <ele>201.05</ele>
        <time>2017-07-27T09:33:34Z</time>
      </trkpt>
      <trkpt lat="43.62463" lon="3.16646">
        <ele>201.53</ele>
        <time>2017-07-27T09:33:38Z</time>
      </trkpt>
      <trkpt lat="43.62439" lon="3.16647">
        <ele>201.53</ele>
        <time>2017-07-27T09:33:55Z</time>
      </trkpt>
      <trkpt lat="43.62424" lon="3.16645">
        <ele>202.49</ele>
        <time>2017-07-27T09:34:07Z</time>
      </trkpt>
      <trkpt lat="43.62406" lon="3.16644">
        <ele>203.46</ele>
        <time>2017-07-27T09:34:22Z</time>
      </trkpt>
      <trkpt lat="43.62396" lon="3.16643">
        <ele>204.42</ele>
        <time>2017-07-27T09:34:31Z</time>
      </trkpt>
      <trkpt lat="43.62384" lon="3.16645">
        <ele>205.86</ele>
        <time>2017-07-27T09:34:47Z</time>
      </trkpt>
      <trkpt lat="43.62369" lon="3.16641">
        <ele>206.34</ele>
        <time>2017-07-27T09:35:01Z</time>
      </trkpt>
      <trkpt lat="43.6235" lon="3.16633">
        <ele>206.34</ele>
        <time>2017-07-27T09:35:19Z</time>
      </trkpt>
      <trkpt lat="43.62335" lon="3.16627">
        <ele>206.82</ele>
        <time>2017-07-27T09:35:33Z</time>
      </trkpt>
      <trkpt lat="43.62313" lon="3.16617">
        <ele>206.34</ele>
        <time>2017-07-27T09:35:50Z</time>
      </trkpt>
      <trkpt lat="43.62295" lon="3.16605">
        <ele>205.86</ele>
        <time>2017-07-27T09:36:06Z</time>
      </trkpt>
      <trkpt lat="43.62278" lon="3.16591">
        <ele>205.86</ele>
        <time>2017-07-27T09:36:23Z</time>
      </trkpt>
      <trkpt lat="43.62259" lon="3.16576">
        <ele>205.86</ele>
        <time>2017-07-27T09:36:42Z</time>
      </trkpt>
      <trkpt lat="43.62239" lon="3.16559">
        <ele>205.38</ele>
        <time>2017-07-27T09:37:00Z</time>
      </trkpt>
      <trkpt lat="43.62234" lon="3.16554">
        <ele>205.38</ele>
        <time>2017-07-27T09:37:04Z</time>
      </trkpt>
      <trkpt lat="43.62229" lon="3.1655">
        <ele>204.9</ele>
        <time>2017-07-27T09:37:09Z</time>
      </trkpt>
      <trkpt lat="43.62226" lon="3.16546">
        <ele>205.38</ele>
        <time>2017-07-27T09:37:12Z</time>
      </trkpt>
      <trkpt lat="43.62223" lon="3.16545">
        <ele>205.38</ele>
        <time>2017-07-27T09:37:15Z</time>
      </trkpt>
      <trkpt lat="43.62219" lon="3.16543">
        <ele>205.38</ele>
        <time>2017-07-27T09:37:18Z</time>
      </trkpt>
      <trkpt lat="43.62214" lon="3.16539">
        <ele>205.38</ele>
        <time>2017-07-27T09:37:23Z</time>
      </trkpt>
      <trkpt lat="43.62207" lon="3.16534">
        <ele>204.9</ele>
        <time>2017-07-27T09:37:31Z</time>
      </trkpt>
      <trkpt lat="43.62204" lon="3.16531">
        <ele>204.9</ele>
        <time>2017-07-27T09:37:34Z</time>
      </trkpt>
      <trkpt lat="43.62197" lon="3.16525">
        <ele>204.42</ele>
        <time>2017-07-27T09:37:41Z</time>
      </trkpt>
      <trkpt lat="43.6219" lon="3.16521">
        <ele>204.42</ele>
        <time>2017-07-27T09:37:47Z</time>
      </trkpt>
      <trkpt lat="43.62185" lon="3.16518">
        <ele>204.42</ele>
        <time>2017-07-27T09:37:52Z</time>
      </trkpt>
      <trkpt lat="43.62166" lon="3.16504">
        <ele>204.42</ele>
        <time>2017-07-27T09:38:09Z</time>
      </trkpt>
      <trkpt lat="43.62157" lon="3.16486">
        <ele>202.98</ele>
        <time>2017-07-27T09:38:25Z</time>
      </trkpt>
      <trkpt lat="43.6216" lon="3.1646">
        <ele>201.53</ele>
        <time>2017-07-27T09:38:42Z</time>
      </trkpt>
      <trkpt lat="43.62159" lon="3.16451">
        <ele>201.53</ele>
        <time>2017-07-27T09:38:49Z</time>
      </trkpt>
      <trkpt lat="43.62146" lon="3.16435">
        <ele>201.05</ele>
        <time>2017-07-27T09:39:06Z</time>
      </trkpt>
      <trkpt lat="43.62145" lon="3.16428">
        <ele>201.05</ele>
        <time>2017-07-27T09:39:19Z</time>
      </trkpt>
      <trkpt lat="43.62135" lon="3.16416">
        <ele>200.57</ele>
        <time>2017-07-27T09:39:31Z</time>
      </trkpt>
      <trkpt lat="43.62132" lon="3.16407">
        <ele>200.57</ele>
        <time>2017-07-27T09:39:35Z</time>
      </trkpt>
      <trkpt lat="43.62128" lon="3.16402">
        <ele>200.09</ele>
        <time>2017-07-27T09:39:39Z</time>
      </trkpt>
      <trkpt lat="43.62118" lon="3.16384">
        <ele>200.09</ele>
        <time>2017-07-27T09:39:52Z</time>
      </trkpt>
      <trkpt lat="43.62116" lon="3.1638">
        <ele>199.61</ele>
        <time>2017-07-27T09:39:55Z</time>
      </trkpt>
      <trkpt lat="43.62112" lon="3.16373">
        <ele>199.61</ele>
        <time>2017-07-27T09:40:00Z</time>
      </trkpt>
      <trkpt lat="43.6211" lon="3.16366">
        <ele>200.09</ele>
        <time>2017-07-27T09:40:04Z</time>
      </trkpt>
      <trkpt lat="43.62099" lon="3.16343">
        <ele>199.61</ele>
        <time>2017-07-27T09:40:19Z</time>
      </trkpt>
      <trkpt lat="43.62095" lon="3.16338">
        <ele>199.61</ele>
        <time>2017-07-27T09:40:23Z</time>
      </trkpt>
      <trkpt lat="43.6209" lon="3.1633">
        <ele>199.61</ele>
        <time>2017-07-27T09:40:29Z</time>
      </trkpt>
      <trkpt lat="43.62084" lon="3.16321">
        <ele>199.61</ele>
        <time>2017-07-27T09:40:37Z</time>
      </trkpt>
      <trkpt lat="43.62078" lon="3.16312">
        <ele>199.61</ele>
        <time>2017-07-27T09:40:46Z</time>
      </trkpt>
      <trkpt lat="43.62073" lon="3.16298">
        <ele>199.61</ele>
        <time>2017-07-27T09:40:55Z</time>
      </trkpt>
      <trkpt lat="43.62068" lon="3.16289">
        <ele>199.61</ele>
        <time>2017-07-27T09:41:02Z</time>
      </trkpt>
      <trkpt lat="43.62065" lon="3.16284">
        <ele>199.61</ele>
        <time>2017-07-27T09:41:06Z</time>
      </trkpt>
      <trkpt lat="43.6206" lon="3.16273">
        <ele>199.61</ele>
        <time>2017-07-27T09:41:14Z</time>
      </trkpt>
      <trkpt lat="43.62059" lon="3.1627">
        <ele>199.61</ele>
        <time>2017-07-27T09:41:16Z</time>
      </trkpt>
      <trkpt lat="43.62053" lon="3.16262">
        <ele>200.09</ele>
        <time>2017-07-27T09:41:24Z</time>
      </trkpt>
      <trkpt lat="43.62047" lon="3.16258">
        <ele>199.61</ele>
        <time>2017-07-27T09:41:29Z</time>
      </trkpt>
      <trkpt lat="43.62036" lon="3.16246">
        <ele>200.09</ele>
        <time>2017-07-27T09:41:47Z</time>
      </trkpt>
      <trkpt lat="43.62035" lon="3.16243">
        <ele>200.09</ele>
        <time>2017-07-27T09:42:11Z</time>
      </trkpt>
      <trkpt lat="43.62035" lon="3.16243">
        <ele>200.09</ele>
        <time>2017-07-27T09:42:31Z</time>
      </trkpt>
      <trkpt lat="43.62033" lon="3.16242">
        <ele>200.09</ele>
        <time>2017-07-27T09:42:53Z</time>
      </trkpt>
      <trkpt lat="43.62034" lon="3.16238">
        <ele>200.57</ele>
        <time>2017-07-27T09:42:59Z</time>
      </trkpt>
      <trkpt lat="43.62031" lon="3.16228">
        <ele>199.61</ele>
        <time>2017-07-27T09:43:06Z</time>
      </trkpt>
      <trkpt lat="43.62025" lon="3.16213">
        <ele>199.61</ele>
        <time>2017-07-27T09:43:18Z</time>
      </trkpt>
      <trkpt lat="43.6202" lon="3.16203">
        <ele>199.61</ele>
        <time>2017-07-27T09:43:25Z</time>
      </trkpt>
      <trkpt lat="43.62018" lon="3.16201">
        <ele>199.13</ele>
        <time>2017-07-27T09:43:27Z</time>
      </trkpt>
      <trkpt lat="43.62011" lon="3.16188">
        <ele>199.61</ele>
        <time>2017-07-27T09:43:41Z</time>
      </trkpt>
      <trkpt lat="43.62003" lon="3.1617">
        <ele>199.61</ele>
        <time>2017-07-27T09:43:55Z</time>
      </trkpt>
      <trkpt lat="43.61998" lon="3.16153">
        <ele>199.13</ele>
        <time>2017-07-27T09:44:10Z</time>
      </trkpt>
      <trkpt lat="43.6199" lon="3.16134">
        <ele>199.61</ele>
        <time>2017-07-27T09:44:25Z</time>
      </trkpt>
      <trkpt lat="43.61983" lon="3.16137">
        <ele>202.49</ele>
        <time>2017-07-27T09:44:41Z</time>
      </trkpt>
      <trkpt lat="43.61976" lon="3.16125">
        <ele>202.01</ele>
        <time>2017-07-27T09:45:02Z</time>
      </trkpt>
      <trkpt lat="43.61965" lon="3.16107">
        <ele>202.01</ele>
        <time>2017-07-27T09:45:20Z</time>
      </trkpt>
      <trkpt lat="43.61954" lon="3.16086">
        <ele>202.01</ele>
        <time>2017-07-27T09:45:34Z</time>
      </trkpt>
      <trkpt lat="43.61943" lon="3.16067">
        <ele>202.01</ele>
        <time>2017-07-27T09:45:51Z</time>
      </trkpt>
      <trkpt lat="43.61933" lon="3.16045">
        <ele>202.01</ele>
        <time>2017-07-27T09:46:08Z</time>
      </trkpt>
      <trkpt lat="43.61922" lon="3.16028">
        <ele>201.53</ele>
        <time>2017-07-27T09:46:24Z</time>
      </trkpt>
      <trkpt lat="43.61914" lon="3.16011">
        <ele>202.01</ele>
        <time>2017-07-27T09:46:40Z</time>
      </trkpt>
      <trkpt lat="43.61899" lon="3.15982">
        <ele>202.01</ele>
        <time>2017-07-27T09:46:58Z</time>
      </trkpt>
      <trkpt lat="43.61898" lon="3.15979">
        <ele>201.53</ele>
        <time>2017-07-27T09:46:59Z</time>
      </trkpt>
      <trkpt lat="43.61887" lon="3.15956">
        <ele>201.53</ele>
        <time>2017-07-27T09:47:11Z</time>
      </trkpt>
      <trkpt lat="43.61877" lon="3.15939">
        <ele>201.05</ele>
        <time>2017-07-27T09:47:23Z</time>
      </trkpt>
      <trkpt lat="43.61877" lon="3.15937">
        <ele>201.53</ele>
        <time>2017-07-27T09:47:24Z</time>
      </trkpt>
      <trkpt lat="43.61873" lon="3.15934">
        <ele>201.05</ele>
        <time>2017-07-27T09:47:29Z</time>
      </trkpt>
      <trkpt lat="43.61872" lon="3.15929">
        <ele>201.53</ele>
        <time>2017-07-27T09:47:32Z</time>
      </trkpt>
      <trkpt lat="43.61863" lon="3.15914">
        <ele>202.01</ele>
        <time>2017-07-27T09:47:45Z</time>
      </trkpt>
      <trkpt lat="43.61862" lon="3.15912">
        <ele>201.53</ele>
        <time>2017-07-27T09:47:47Z</time>
      </trkpt>
      <trkpt lat="43.61855" lon="3.15897">
        <ele>202.01</ele>
        <time>2017-07-27T09:47:57Z</time>
      </trkpt>
      <trkpt lat="43.61844" lon="3.15875">
        <ele>201.53</ele>
        <time>2017-07-27T09:48:10Z</time>
      </trkpt>
      <trkpt lat="43.61841" lon="3.15872">
        <ele>201.53</ele>
        <time>2017-07-27T09:48:14Z</time>
      </trkpt>
      <trkpt lat="43.61834" lon="3.15859">
        <ele>201.53</ele>
        <time>2017-07-27T09:48:27Z</time>
      </trkpt>
      <trkpt lat="43.61826" lon="3.15842">
        <ele>201.53</ele>
        <time>2017-07-27T09:48:40Z</time>
      </trkpt>
      <trkpt lat="43.61818" lon="3.15827">
        <ele>201.53</ele>
        <time>2017-07-27T09:48:53Z</time>
      </trkpt>
      <trkpt lat="43.61813" lon="3.15819">
        <ele>201.05</ele>
        <time>2017-07-27T09:48:59Z</time>
      </trkpt>
      <trkpt lat="43.61803" lon="3.15803">
        <ele>201.53</ele>
        <time>2017-07-27T09:49:11Z</time>
      </trkpt>
      <trkpt lat="43.61802" lon="3.158">
        <ele>201.53</ele>
        <time>2017-07-27T09:49:13Z</time>
      </trkpt>
      <trkpt lat="43.61797" lon="3.15798">
        <ele>201.53</ele>
        <time>2017-07-27T09:49:22Z</time>
      </trkpt>
      <trkpt lat="43.6179" lon="3.15782">
        <ele>201.05</ele>
        <time>2017-07-27T09:49:35Z</time>
      </trkpt>
      <trkpt lat="43.61788" lon="3.15778">
        <ele>201.05</ele>
        <time>2017-07-27T09:49:38Z</time>
      </trkpt>
      <trkpt lat="43.61786" lon="3.15774">
        <ele>201.05</ele>
        <time>2017-07-27T09:49:41Z</time>
      </trkpt>
      <trkpt lat="43.61775" lon="3.15758">
        <ele>199.13</ele>
        <time>2017-07-27T09:49:56Z</time>
      </trkpt>
      <trkpt lat="43.61774" lon="3.15756">
        <ele>199.61</ele>
        <time>2017-07-27T09:49:58Z</time>
      </trkpt>
      <trkpt lat="43.61763" lon="3.15747">
        <ele>198.65</ele>
        <time>2017-07-27T09:50:09Z</time>
      </trkpt>
      <trkpt lat="43.61757" lon="3.15741">
        <ele>198.17</ele>
        <time>2017-07-27T09:50:15Z</time>
      </trkpt>
      <trkpt lat="43.61746" lon="3.15733">
        <ele>197.69</ele>
        <time>2017-07-27T09:50:28Z</time>
      </trkpt>
      <trkpt lat="43.6174" lon="3.15723">
        <ele>197.21</ele>
        <time>2017-07-27T09:50:37Z</time>
      </trkpt>
      <trkpt lat="43.61739" lon="3.15718">
        <ele>197.21</ele>
        <time>2017-07-27T09:50:39Z</time>
      </trkpt>
      <trkpt lat="43.61738" lon="3.1571">
        <ele>197.69</ele>
        <time>2017-07-27T09:50:46Z</time>
      </trkpt>
      <trkpt lat="43.61738" lon="3.157">
        <ele>197.69</ele>
        <time>2017-07-27T09:50:56Z</time>
      </trkpt>
      <trkpt lat="43.61739" lon="3.15697">
        <ele>198.17</ele>
        <time>2017-07-27T09:51:13Z</time>
      </trkpt>
    </trkseg>
  </trk>
</gpx>